<?xml version="1.0" encoding="UTF-8" standalone="no" ?>
<gpx xmlns="http://www.topografix.com/GPX/1/1" xmlns:xsi="http://www.w3.org/2001/XMLSchema-instance" xsi:schemaLocation="http://www.topografix.com/GPX/1/1 http://www.topografix.com/GPX/1/1/gpx.xsd" version="1.1" creator="VisuGPX - https://www.visugpx.com">
  <metadata>
    <name>créte de la Pègue   col du Tourmalet</name>
    <desc><![CDATA[[url]https://plus.google.com/photos/105108571230570121986/albums#photos/105108571230570121986/albums/5733886271878115649[/url]
]]></desc>
  </metadata>
  <trk>
    <name><![CDATA[ACTIVE LOG]]></name>
    <trkseg>
      <trkpt lat="42.90556" lon="0.12992">
        <ele>1754.062744</ele>
        <time>2012-04-21T06:25:34Z</time>
      </trkpt>
      <trkpt lat="42.90556" lon="0.12994">
        <ele>1751.178711</ele>
        <time>2012-04-21T06:26:01Z</time>
      </trkpt>
      <trkpt lat="42.90555" lon="0.12992">
        <ele>1753.582031</ele>
        <time>2012-04-21T06:26:34Z</time>
      </trkpt>
      <trkpt lat="42.90554" lon="0.12997">
        <ele>1754.543213</ele>
        <time>2012-04-21T06:27:39Z</time>
      </trkpt>
      <trkpt lat="42.90554" lon="0.12996">
        <ele>1754.543213</ele>
        <time>2012-04-21T06:27:41Z</time>
      </trkpt>
      <trkpt lat="42.90549" lon="0.12997">
        <ele>1754.543213</ele>
        <time>2012-04-21T06:27:45Z</time>
      </trkpt>
      <trkpt lat="42.90543" lon="0.13">
        <ele>1754.062744</ele>
        <time>2012-04-21T06:28:05Z</time>
      </trkpt>
      <trkpt lat="42.90542" lon="0.12999">
        <ele>1753.582031</ele>
        <time>2012-04-21T06:28:47Z</time>
      </trkpt>
      <trkpt lat="42.9054" lon="0.13002">
        <ele>1753.101318</ele>
        <time>2012-04-21T06:29:09Z</time>
      </trkpt>
      <trkpt lat="42.90538" lon="0.13002">
        <ele>1752.620605</ele>
        <time>2012-04-21T06:29:13Z</time>
      </trkpt>
      <trkpt lat="42.90526" lon="0.13008">
        <ele>1751.178711</ele>
        <time>2012-04-21T06:29:26Z</time>
      </trkpt>
      <trkpt lat="42.90524" lon="0.13009">
        <ele>1751.178711</ele>
        <time>2012-04-21T06:29:31Z</time>
      </trkpt>
      <trkpt lat="42.90521" lon="0.13011">
        <ele>1751.178711</ele>
        <time>2012-04-21T06:29:34Z</time>
      </trkpt>
      <trkpt lat="42.90516" lon="0.13011">
        <ele>1751.178711</ele>
        <time>2012-04-21T06:29:38Z</time>
      </trkpt>
      <trkpt lat="42.90509" lon="0.13013">
        <ele>1751.178711</ele>
        <time>2012-04-21T06:29:47Z</time>
      </trkpt>
      <trkpt lat="42.90504" lon="0.13016">
        <ele>1750.217529</ele>
        <time>2012-04-21T06:29:52Z</time>
      </trkpt>
      <trkpt lat="42.90493" lon="0.13021">
        <ele>1746.852783</ele>
        <time>2012-04-21T06:30:06Z</time>
      </trkpt>
      <trkpt lat="42.9048" lon="0.13016">
        <ele>1747.333496</ele>
        <time>2012-04-21T06:30:19Z</time>
      </trkpt>
      <trkpt lat="42.90466" lon="0.13012">
        <ele>1751.659424</ele>
        <time>2012-04-21T06:30:40Z</time>
      </trkpt>
      <trkpt lat="42.90462" lon="0.1301">
        <ele>1754.062744</ele>
        <time>2012-04-21T06:30:47Z</time>
      </trkpt>
      <trkpt lat="42.90458" lon="0.13003">
        <ele>1756.466064</ele>
        <time>2012-04-21T06:30:53Z</time>
      </trkpt>
      <trkpt lat="42.90453" lon="0.13008">
        <ele>1761.753418</ele>
        <time>2012-04-21T06:31:23Z</time>
      </trkpt>
      <trkpt lat="42.90452" lon="0.13013">
        <ele>1764.637207</ele>
        <time>2012-04-21T06:31:30Z</time>
      </trkpt>
      <trkpt lat="42.90451" lon="0.13016">
        <ele>1765.598633</ele>
        <time>2012-04-21T06:31:32Z</time>
      </trkpt>
      <trkpt lat="42.90449" lon="0.1302">
        <ele>1767.040527</ele>
        <time>2012-04-21T06:31:36Z</time>
      </trkpt>
      <trkpt lat="42.90444" lon="0.13032">
        <ele>1772.327881</ele>
        <time>2012-04-21T06:31:58Z</time>
      </trkpt>
      <trkpt lat="42.90444" lon="0.13038">
        <ele>1771.846924</ele>
        <time>2012-04-21T06:32:02Z</time>
      </trkpt>
      <trkpt lat="42.90441" lon="0.13041">
        <ele>1772.327881</ele>
        <time>2012-04-21T06:32:27Z</time>
      </trkpt>
      <trkpt lat="42.90441" lon="0.13041">
        <ele>1771.846924</ele>
        <time>2012-04-21T06:32:53Z</time>
      </trkpt>
      <trkpt lat="42.9044" lon="0.13045">
        <ele>1772.808594</ele>
        <time>2012-04-21T06:32:56Z</time>
      </trkpt>
      <trkpt lat="42.90438" lon="0.13054">
        <ele>1773.769775</ele>
        <time>2012-04-21T06:33:08Z</time>
      </trkpt>
      <trkpt lat="42.90436" lon="0.13059">
        <ele>1774.250488</ele>
        <time>2012-04-21T06:33:16Z</time>
      </trkpt>
      <trkpt lat="42.90427" lon="0.13067">
        <ele>1773.769775</ele>
        <time>2012-04-21T06:33:41Z</time>
      </trkpt>
      <trkpt lat="42.90421" lon="0.13076">
        <ele>1772.808594</ele>
        <time>2012-04-21T06:34:33Z</time>
      </trkpt>
      <trkpt lat="42.90422" lon="0.13087">
        <ele>1773.769775</ele>
        <time>2012-04-21T06:34:42Z</time>
      </trkpt>
      <trkpt lat="42.9042" lon="0.13093">
        <ele>1774.250488</ele>
        <time>2012-04-21T06:35:03Z</time>
      </trkpt>
      <trkpt lat="42.90413" lon="0.13099">
        <ele>1776.173096</ele>
        <time>2012-04-21T06:35:25Z</time>
      </trkpt>
      <trkpt lat="42.90411" lon="0.131">
        <ele>1776.653809</ele>
        <time>2012-04-21T06:35:35Z</time>
      </trkpt>
      <trkpt lat="42.90404" lon="0.13092">
        <ele>1778.095703</ele>
        <time>2012-04-21T06:35:41Z</time>
      </trkpt>
      <trkpt lat="42.90396" lon="0.13086">
        <ele>1780.018311</ele>
        <time>2012-04-21T06:35:47Z</time>
      </trkpt>
      <trkpt lat="42.90393" lon="0.13085">
        <ele>1780.499023</ele>
        <time>2012-04-21T06:35:51Z</time>
      </trkpt>
      <trkpt lat="42.90389" lon="0.13084">
        <ele>1782.421631</ele>
        <time>2012-04-21T06:35:58Z</time>
      </trkpt>
      <trkpt lat="42.90387" lon="0.13084">
        <ele>1782.9021</ele>
        <time>2012-04-21T06:36:00Z</time>
      </trkpt>
      <trkpt lat="42.90376" lon="0.13084">
        <ele>1787.228027</ele>
        <time>2012-04-21T06:36:16Z</time>
      </trkpt>
      <trkpt lat="42.90375" lon="0.13083">
        <ele>1787.228027</ele>
        <time>2012-04-21T06:36:17Z</time>
      </trkpt>
      <trkpt lat="42.9037" lon="0.13082">
        <ele>1788.67041</ele>
        <time>2012-04-21T06:36:24Z</time>
      </trkpt>
      <trkpt lat="42.90366" lon="0.13082">
        <ele>1790.112305</ele>
        <time>2012-04-21T06:36:28Z</time>
      </trkpt>
      <trkpt lat="42.90354" lon="0.13078">
        <ele>1794.918701</ele>
        <time>2012-04-21T06:36:44Z</time>
      </trkpt>
      <trkpt lat="42.9035" lon="0.13075">
        <ele>1797.322021</ele>
        <time>2012-04-21T06:36:51Z</time>
      </trkpt>
      <trkpt lat="42.90349" lon="0.13075">
        <ele>1800.686523</ele>
        <time>2012-04-21T06:37:03Z</time>
      </trkpt>
      <trkpt lat="42.90352" lon="0.13084">
        <ele>1803.089844</ele>
        <time>2012-04-21T06:37:16Z</time>
      </trkpt>
      <trkpt lat="42.90353" lon="0.13091">
        <ele>1803.089844</ele>
        <time>2012-04-21T06:37:25Z</time>
      </trkpt>
      <trkpt lat="42.90354" lon="0.13095">
        <ele>1803.089844</ele>
        <time>2012-04-21T06:37:34Z</time>
      </trkpt>
      <trkpt lat="42.90352" lon="0.13093">
        <ele>1803.570557</ele>
        <time>2012-04-21T06:37:36Z</time>
      </trkpt>
      <trkpt lat="42.90349" lon="0.13091">
        <ele>1803.570557</ele>
        <time>2012-04-21T06:37:39Z</time>
      </trkpt>
      <trkpt lat="42.90338" lon="0.13085">
        <ele>1809.338623</ele>
        <time>2012-04-21T06:37:54Z</time>
      </trkpt>
      <trkpt lat="42.90333" lon="0.13081">
        <ele>1814.14502</ele>
        <time>2012-04-21T06:38:06Z</time>
      </trkpt>
      <trkpt lat="42.90331" lon="0.13082">
        <ele>1816.54834</ele>
        <time>2012-04-21T06:38:40Z</time>
      </trkpt>
      <trkpt lat="42.9033" lon="0.1308">
        <ele>1813.664307</ele>
        <time>2012-04-21T06:38:51Z</time>
      </trkpt>
      <trkpt lat="42.9033" lon="0.13083">
        <ele>1813.664307</ele>
        <time>2012-04-21T06:38:53Z</time>
      </trkpt>
      <trkpt lat="42.90329" lon="0.13096">
        <ele>1812.703125</ele>
        <time>2012-04-21T06:39:15Z</time>
      </trkpt>
      <trkpt lat="42.90326" lon="0.13114">
        <ele>1814.625732</ele>
        <time>2012-04-21T06:39:36Z</time>
      </trkpt>
      <trkpt lat="42.90323" lon="0.13112">
        <ele>1816.54834</ele>
        <time>2012-04-21T06:39:50Z</time>
      </trkpt>
      <trkpt lat="42.90314" lon="0.13105">
        <ele>1818.470947</ele>
        <time>2012-04-21T06:40:11Z</time>
      </trkpt>
      <trkpt lat="42.90313" lon="0.13117">
        <ele>1820.393799</ele>
        <time>2012-04-21T06:40:25Z</time>
      </trkpt>
      <trkpt lat="42.9031" lon="0.13129">
        <ele>1822.797119</ele>
        <time>2012-04-21T06:40:35Z</time>
      </trkpt>
      <trkpt lat="42.90297" lon="0.1314">
        <ele>1827.123047</ele>
        <time>2012-04-21T06:40:53Z</time>
      </trkpt>
      <trkpt lat="42.90286" lon="0.1315">
        <ele>1829.526123</ele>
        <time>2012-04-21T06:41:07Z</time>
      </trkpt>
      <trkpt lat="42.90281" lon="0.13151">
        <ele>1832.890625</ele>
        <time>2012-04-21T06:41:21Z</time>
      </trkpt>
      <trkpt lat="42.90274" lon="0.13137">
        <ele>1834.332764</ele>
        <time>2012-04-21T06:41:38Z</time>
      </trkpt>
      <trkpt lat="42.9026" lon="0.13136">
        <ele>1835.774658</ele>
        <time>2012-04-21T06:41:54Z</time>
      </trkpt>
      <trkpt lat="42.90257" lon="0.13137">
        <ele>1836.255615</ele>
        <time>2012-04-21T06:42:08Z</time>
      </trkpt>
      <trkpt lat="42.90247" lon="0.13136">
        <ele>1834.813477</ele>
        <time>2012-04-21T06:42:22Z</time>
      </trkpt>
      <trkpt lat="42.90234" lon="0.13136">
        <ele>1835.293945</ele>
        <time>2012-04-21T06:42:34Z</time>
      </trkpt>
      <trkpt lat="42.90232" lon="0.13136">
        <ele>1835.293945</ele>
        <time>2012-04-21T06:42:35Z</time>
      </trkpt>
      <trkpt lat="42.90217" lon="0.13138">
        <ele>1833.371338</ele>
        <time>2012-04-21T06:42:50Z</time>
      </trkpt>
      <trkpt lat="42.90207" lon="0.13144">
        <ele>1830.968262</ele>
        <time>2012-04-21T06:43:12Z</time>
      </trkpt>
      <trkpt lat="42.902" lon="0.13147">
        <ele>1830.006836</ele>
        <time>2012-04-21T06:43:26Z</time>
      </trkpt>
      <trkpt lat="42.90193" lon="0.1315">
        <ele>1829.526123</ele>
        <time>2012-04-21T06:43:40Z</time>
      </trkpt>
      <trkpt lat="42.90185" lon="0.13151">
        <ele>1831.44873</ele>
        <time>2012-04-21T06:43:54Z</time>
      </trkpt>
      <trkpt lat="42.90178" lon="0.1315">
        <ele>1833.371338</ele>
        <time>2012-04-21T06:44:04Z</time>
      </trkpt>
      <trkpt lat="42.90172" lon="0.13149">
        <ele>1834.332764</ele>
        <time>2012-04-21T06:44:11Z</time>
      </trkpt>
      <trkpt lat="42.9017" lon="0.13147">
        <ele>1834.332764</ele>
        <time>2012-04-21T06:44:13Z</time>
      </trkpt>
      <trkpt lat="42.90172" lon="0.13141">
        <ele>1835.293945</ele>
        <time>2012-04-21T06:44:17Z</time>
      </trkpt>
      <trkpt lat="42.90176" lon="0.13134">
        <ele>1836.736084</ele>
        <time>2012-04-21T06:44:23Z</time>
      </trkpt>
      <trkpt lat="42.9018" lon="0.13121">
        <ele>1838.658936</ele>
        <time>2012-04-21T06:44:37Z</time>
      </trkpt>
      <trkpt lat="42.90179" lon="0.13107">
        <ele>1838.658936</ele>
        <time>2012-04-21T06:44:48Z</time>
      </trkpt>
      <trkpt lat="42.90176" lon="0.131">
        <ele>1838.178223</ele>
        <time>2012-04-21T06:44:53Z</time>
      </trkpt>
      <trkpt lat="42.90174" lon="0.13097">
        <ele>1838.178223</ele>
        <time>2012-04-21T06:44:56Z</time>
      </trkpt>
      <trkpt lat="42.9016" lon="0.13089">
        <ele>1836.736084</ele>
        <time>2012-04-21T06:45:09Z</time>
      </trkpt>
      <trkpt lat="42.90152" lon="0.13086">
        <ele>1837.69751</ele>
        <time>2012-04-21T06:45:20Z</time>
      </trkpt>
      <trkpt lat="42.90148" lon="0.13081">
        <ele>1839.139404</ele>
        <time>2012-04-21T06:45:29Z</time>
      </trkpt>
      <trkpt lat="42.90142" lon="0.13078">
        <ele>1840.581299</ele>
        <time>2012-04-21T06:45:36Z</time>
      </trkpt>
      <trkpt lat="42.90141" lon="0.13075">
        <ele>1841.542725</ele>
        <time>2012-04-21T06:45:41Z</time>
      </trkpt>
      <trkpt lat="42.90136" lon="0.13083">
        <ele>1843.946045</ele>
        <time>2012-04-21T06:45:51Z</time>
      </trkpt>
      <trkpt lat="42.90134" lon="0.13104">
        <ele>1848.752441</ele>
        <time>2012-04-21T06:46:08Z</time>
      </trkpt>
      <trkpt lat="42.90134" lon="0.13105">
        <ele>1848.752441</ele>
        <time>2012-04-21T06:46:10Z</time>
      </trkpt>
      <trkpt lat="42.90133" lon="0.13121">
        <ele>1849.233154</ele>
        <time>2012-04-21T06:46:25Z</time>
      </trkpt>
      <trkpt lat="42.90132" lon="0.13123">
        <ele>1849.233154</ele>
        <time>2012-04-21T06:46:27Z</time>
      </trkpt>
      <trkpt lat="42.9013" lon="0.13129">
        <ele>1848.752441</ele>
        <time>2012-04-21T06:46:33Z</time>
      </trkpt>
      <trkpt lat="42.90128" lon="0.13145">
        <ele>1850.675049</ele>
        <time>2012-04-21T06:46:49Z</time>
      </trkpt>
      <trkpt lat="42.90123" lon="0.13158">
        <ele>1855.481934</ele>
        <time>2012-04-21T06:47:05Z</time>
      </trkpt>
      <trkpt lat="42.90122" lon="0.13161">
        <ele>1856.443115</ele>
        <time>2012-04-21T06:47:07Z</time>
      </trkpt>
      <trkpt lat="42.90119" lon="0.13161">
        <ele>1858.846436</ele>
        <time>2012-04-21T06:47:12Z</time>
      </trkpt>
      <trkpt lat="42.90117" lon="0.13156">
        <ele>1860.769043</ele>
        <time>2012-04-21T06:47:18Z</time>
      </trkpt>
      <trkpt lat="42.90113" lon="0.13148">
        <ele>1863.172363</ele>
        <time>2012-04-21T06:47:27Z</time>
      </trkpt>
      <trkpt lat="42.90111" lon="0.1315">
        <ele>1862.210938</ele>
        <time>2012-04-21T06:47:31Z</time>
      </trkpt>
      <trkpt lat="42.90104" lon="0.1314">
        <ele>1862.69165</ele>
        <time>2012-04-21T06:47:45Z</time>
      </trkpt>
      <trkpt lat="42.90104" lon="0.13134">
        <ele>1863.652832</ele>
        <time>2012-04-21T06:47:49Z</time>
      </trkpt>
      <trkpt lat="42.90099" lon="0.13125">
        <ele>1866.056152</ele>
        <time>2012-04-21T06:48:01Z</time>
      </trkpt>
      <trkpt lat="42.90096" lon="0.13111">
        <ele>1868.94043</ele>
        <time>2012-04-21T06:48:14Z</time>
      </trkpt>
      <trkpt lat="42.90095" lon="0.1311">
        <ele>1870.863037</ele>
        <time>2012-04-21T06:48:23Z</time>
      </trkpt>
      <trkpt lat="42.90093" lon="0.13112">
        <ele>1871.343506</ele>
        <time>2012-04-21T06:48:25Z</time>
      </trkpt>
      <trkpt lat="42.90091" lon="0.13114">
        <ele>1871.824219</ele>
        <time>2012-04-21T06:48:28Z</time>
      </trkpt>
      <trkpt lat="42.90087" lon="0.13128">
        <ele>1874.708252</ele>
        <time>2012-04-21T06:48:45Z</time>
      </trkpt>
      <trkpt lat="42.90085" lon="0.13138">
        <ele>1875.188721</ele>
        <time>2012-04-21T06:48:56Z</time>
      </trkpt>
      <trkpt lat="42.90081" lon="0.13147">
        <ele>1876.630859</ele>
        <time>2012-04-21T06:49:10Z</time>
      </trkpt>
      <trkpt lat="42.90081" lon="0.13147">
        <ele>1876.630859</ele>
        <time>2012-04-21T06:49:11Z</time>
      </trkpt>
      <trkpt lat="42.90075" lon="0.13131">
        <ele>1877.592041</ele>
        <time>2012-04-21T06:49:25Z</time>
      </trkpt>
      <trkpt lat="42.9007" lon="0.13114">
        <ele>1879.514648</ele>
        <time>2012-04-21T06:49:42Z</time>
      </trkpt>
      <trkpt lat="42.90067" lon="0.1309">
        <ele>1884.802246</ele>
        <time>2012-04-21T06:50:04Z</time>
      </trkpt>
      <trkpt lat="42.90066" lon="0.13089">
        <ele>1885.282715</ele>
        <time>2012-04-21T06:50:05Z</time>
      </trkpt>
      <trkpt lat="42.90063" lon="0.1308">
        <ele>1885.763428</ele>
        <time>2012-04-21T06:50:14Z</time>
      </trkpt>
      <trkpt lat="42.90054" lon="0.13069">
        <ele>1889.608643</ele>
        <time>2012-04-21T06:50:32Z</time>
      </trkpt>
      <trkpt lat="42.90054" lon="0.13069">
        <ele>1889.608643</ele>
        <time>2012-04-21T06:50:35Z</time>
      </trkpt>
      <trkpt lat="42.90052" lon="0.13071">
        <ele>1890.089355</ele>
        <time>2012-04-21T06:51:00Z</time>
      </trkpt>
      <trkpt lat="42.90049" lon="0.13079">
        <ele>1890.569824</ele>
        <time>2012-04-21T06:51:36Z</time>
      </trkpt>
      <trkpt lat="42.90047" lon="0.13088">
        <ele>1891.53125</ele>
        <time>2012-04-21T06:51:45Z</time>
      </trkpt>
      <trkpt lat="42.90043" lon="0.13104">
        <ele>1891.53125</ele>
        <time>2012-04-21T06:52:05Z</time>
      </trkpt>
      <trkpt lat="42.9004" lon="0.13114">
        <ele>1890.569824</ele>
        <time>2012-04-21T06:52:19Z</time>
      </trkpt>
      <trkpt lat="42.90036" lon="0.13137">
        <ele>1895.857178</ele>
        <time>2012-04-21T06:53:03Z</time>
      </trkpt>
      <trkpt lat="42.90036" lon="0.13141">
        <ele>1896.337891</ele>
        <time>2012-04-21T06:53:19Z</time>
      </trkpt>
      <trkpt lat="42.90033" lon="0.13139">
        <ele>1896.818359</ele>
        <time>2012-04-21T06:53:25Z</time>
      </trkpt>
      <trkpt lat="42.90023" lon="0.13125">
        <ele>1898.740967</ele>
        <time>2012-04-21T06:53:49Z</time>
      </trkpt>
      <trkpt lat="42.90014" lon="0.13103">
        <ele>1898.740967</ele>
        <time>2012-04-21T06:54:19Z</time>
      </trkpt>
      <trkpt lat="42.9001" lon="0.13089">
        <ele>1898.740967</ele>
        <time>2012-04-21T06:54:46Z</time>
      </trkpt>
      <trkpt lat="42.90008" lon="0.13084">
        <ele>1899.702393</ele>
        <time>2012-04-21T06:55:12Z</time>
      </trkpt>
      <trkpt lat="42.90002" lon="0.13101">
        <ele>1903.547852</ele>
        <time>2012-04-21T06:55:29Z</time>
      </trkpt>
      <trkpt lat="42.89999" lon="0.13119">
        <ele>1909.796143</ele>
        <time>2012-04-21T06:55:54Z</time>
      </trkpt>
      <trkpt lat="42.89996" lon="0.1313">
        <ele>1911.718994</ele>
        <time>2012-04-21T06:56:11Z</time>
      </trkpt>
      <trkpt lat="42.89995" lon="0.13139">
        <ele>1914.12207</ele>
        <time>2012-04-21T06:56:18Z</time>
      </trkpt>
      <trkpt lat="42.89997" lon="0.13155">
        <ele>1918.928955</ele>
        <time>2012-04-21T06:56:35Z</time>
      </trkpt>
      <trkpt lat="42.89997" lon="0.13167">
        <ele>1920.851562</ele>
        <time>2012-04-21T06:56:58Z</time>
      </trkpt>
      <trkpt lat="42.89997" lon="0.13184">
        <ele>1925.657959</ele>
        <time>2012-04-21T06:57:21Z</time>
      </trkpt>
      <trkpt lat="42.89997" lon="0.13196">
        <ele>1928.541992</ele>
        <time>2012-04-21T06:57:44Z</time>
      </trkpt>
      <trkpt lat="42.89997" lon="0.13197">
        <ele>1929.022461</ele>
        <time>2012-04-21T06:57:47Z</time>
      </trkpt>
      <trkpt lat="42.89993" lon="0.13205">
        <ele>1929.503174</ele>
        <time>2012-04-21T06:57:57Z</time>
      </trkpt>
      <trkpt lat="42.8999" lon="0.13211">
        <ele>1929.503174</ele>
        <time>2012-04-21T06:58:12Z</time>
      </trkpt>
      <trkpt lat="42.89982" lon="0.13211">
        <ele>1932.387451</ele>
        <time>2012-04-21T06:58:56Z</time>
      </trkpt>
      <trkpt lat="42.89976" lon="0.13199">
        <ele>1935.27124</ele>
        <time>2012-04-21T06:59:12Z</time>
      </trkpt>
      <trkpt lat="42.89964" lon="0.13211">
        <ele>1941.039062</ele>
        <time>2012-04-21T06:59:47Z</time>
      </trkpt>
      <trkpt lat="42.89953" lon="0.13217">
        <ele>1942.96167</ele>
        <time>2012-04-21T07:00:07Z</time>
      </trkpt>
      <trkpt lat="42.89947" lon="0.13227">
        <ele>1944.884277</ele>
        <time>2012-04-21T07:00:28Z</time>
      </trkpt>
      <trkpt lat="42.89943" lon="0.13243">
        <ele>1948.729736</ele>
        <time>2012-04-21T07:00:57Z</time>
      </trkpt>
      <trkpt lat="42.89939" lon="0.1325">
        <ele>1951.61377</ele>
        <time>2012-04-21T07:01:21Z</time>
      </trkpt>
      <trkpt lat="42.8993" lon="0.13252">
        <ele>1952.574951</ele>
        <time>2012-04-21T07:01:46Z</time>
      </trkpt>
      <trkpt lat="42.89924" lon="0.1325">
        <ele>1956.420166</ele>
        <time>2012-04-21T07:02:09Z</time>
      </trkpt>
      <trkpt lat="42.89922" lon="0.13248">
        <ele>1957.381592</ele>
        <time>2012-04-21T07:02:13Z</time>
      </trkpt>
      <trkpt lat="42.89912" lon="0.13241">
        <ele>1961.70752</ele>
        <time>2012-04-21T07:02:32Z</time>
      </trkpt>
      <trkpt lat="42.89907" lon="0.13238">
        <ele>1964.11084</ele>
        <time>2012-04-21T07:02:51Z</time>
      </trkpt>
      <trkpt lat="42.89904" lon="0.1324">
        <ele>1965.072266</ele>
        <time>2012-04-21T07:03:03Z</time>
      </trkpt>
      <trkpt lat="42.89897" lon="0.13247">
        <ele>1966.51416</ele>
        <time>2012-04-21T07:03:21Z</time>
      </trkpt>
      <trkpt lat="42.89891" lon="0.13258">
        <ele>1969.398193</ele>
        <time>2012-04-21T07:03:41Z</time>
      </trkpt>
      <trkpt lat="42.89886" lon="0.13266">
        <ele>1972.281982</ele>
        <time>2012-04-21T07:03:58Z</time>
      </trkpt>
      <trkpt lat="42.89884" lon="0.13267">
        <ele>1971.80127</ele>
        <time>2012-04-21T07:04:03Z</time>
      </trkpt>
      <trkpt lat="42.89877" lon="0.13266">
        <ele>1972.281982</ele>
        <time>2012-04-21T07:04:23Z</time>
      </trkpt>
      <trkpt lat="42.8987" lon="0.13272">
        <ele>1971.80127</ele>
        <time>2012-04-21T07:04:35Z</time>
      </trkpt>
      <trkpt lat="42.89868" lon="0.13282">
        <ele>1974.20459</ele>
        <time>2012-04-21T07:04:51Z</time>
      </trkpt>
      <trkpt lat="42.89864" lon="0.13295">
        <ele>1979.010986</ele>
        <time>2012-04-21T07:05:26Z</time>
      </trkpt>
      <trkpt lat="42.89859" lon="0.13305">
        <ele>1981.414551</ele>
        <time>2012-04-21T07:05:43Z</time>
      </trkpt>
      <trkpt lat="42.89859" lon="0.13317">
        <ele>1982.856445</ele>
        <time>2012-04-21T07:06:14Z</time>
      </trkpt>
      <trkpt lat="42.89858" lon="0.13323">
        <ele>1983.817871</ele>
        <time>2012-04-21T07:06:33Z</time>
      </trkpt>
      <trkpt lat="42.89858" lon="0.13336">
        <ele>1988.143799</ele>
        <time>2012-04-21T07:06:58Z</time>
      </trkpt>
      <trkpt lat="42.89855" lon="0.13343">
        <ele>1991.027588</ele>
        <time>2012-04-21T07:07:23Z</time>
      </trkpt>
      <trkpt lat="42.89841" lon="0.13341">
        <ele>1991.989014</ele>
        <time>2012-04-21T07:07:39Z</time>
      </trkpt>
      <trkpt lat="42.89832" lon="0.13332">
        <ele>1992.950195</ele>
        <time>2012-04-21T07:07:57Z</time>
      </trkpt>
      <trkpt lat="42.89829" lon="0.1332">
        <ele>1993.911621</ele>
        <time>2012-04-21T07:08:18Z</time>
      </trkpt>
      <trkpt lat="42.89819" lon="0.13333">
        <ele>1995.834229</ele>
        <time>2012-04-21T07:08:55Z</time>
      </trkpt>
      <trkpt lat="42.89806" lon="0.13357">
        <ele>2003.044189</ele>
        <time>2012-04-21T07:09:42Z</time>
      </trkpt>
      <trkpt lat="42.898" lon="0.13357">
        <ele>2004.005615</ele>
        <time>2012-04-21T07:09:52Z</time>
      </trkpt>
      <trkpt lat="42.89788" lon="0.13346">
        <ele>2008.812012</ele>
        <time>2012-04-21T07:10:18Z</time>
      </trkpt>
      <trkpt lat="42.89777" lon="0.13347">
        <ele>2011.696045</ele>
        <time>2012-04-21T07:10:36Z</time>
      </trkpt>
      <trkpt lat="42.89771" lon="0.13344">
        <ele>2014.099365</ele>
        <time>2012-04-21T07:10:51Z</time>
      </trkpt>
      <trkpt lat="42.89766" lon="0.13341">
        <ele>2013.618652</ele>
        <time>2012-04-21T07:11:07Z</time>
      </trkpt>
      <trkpt lat="42.89757" lon="0.13331">
        <ele>2017.463867</ele>
        <time>2012-04-21T07:11:33Z</time>
      </trkpt>
      <trkpt lat="42.89752" lon="0.13325">
        <ele>2019.386719</ele>
        <time>2012-04-21T07:11:49Z</time>
      </trkpt>
      <trkpt lat="42.89743" lon="0.13316">
        <ele>2021.789795</ele>
        <time>2012-04-21T07:12:05Z</time>
      </trkpt>
      <trkpt lat="42.89739" lon="0.13312">
        <ele>2023.231934</ele>
        <time>2012-04-21T07:12:22Z</time>
      </trkpt>
      <trkpt lat="42.89731" lon="0.13303">
        <ele>2025.63501</ele>
        <time>2012-04-21T07:12:41Z</time>
      </trkpt>
      <trkpt lat="42.89729" lon="0.13298">
        <ele>2028.038574</ele>
        <time>2012-04-21T07:12:59Z</time>
      </trkpt>
      <trkpt lat="42.89727" lon="0.13309">
        <ele>2031.883789</ele>
        <time>2012-04-21T07:13:18Z</time>
      </trkpt>
      <trkpt lat="42.8973" lon="0.13317">
        <ele>2033.806396</ele>
        <time>2012-04-21T07:13:38Z</time>
      </trkpt>
      <trkpt lat="42.89735" lon="0.1333">
        <ele>2035.729004</ele>
        <time>2012-04-21T07:13:58Z</time>
      </trkpt>
      <trkpt lat="42.89738" lon="0.13344">
        <ele>2040.054932</ele>
        <time>2012-04-21T07:14:19Z</time>
      </trkpt>
      <trkpt lat="42.89742" lon="0.13369">
        <ele>2044.380859</ele>
        <time>2012-04-21T07:15:05Z</time>
      </trkpt>
      <trkpt lat="42.89737" lon="0.1339">
        <ele>2050.629395</ele>
        <time>2012-04-21T07:15:59Z</time>
      </trkpt>
      <trkpt lat="42.89732" lon="0.13397">
        <ele>2053.994141</ele>
        <time>2012-04-21T07:16:10Z</time>
      </trkpt>
      <trkpt lat="42.89723" lon="0.13406">
        <ele>2057.358643</ele>
        <time>2012-04-21T07:16:27Z</time>
      </trkpt>
      <trkpt lat="42.89708" lon="0.13424">
        <ele>2064.087891</ele>
        <time>2012-04-21T07:17:01Z</time>
      </trkpt>
      <trkpt lat="42.89704" lon="0.1343">
        <ele>2066.491211</ele>
        <time>2012-04-21T07:17:11Z</time>
      </trkpt>
      <trkpt lat="42.89692" lon="0.13429">
        <ele>2067.452393</ele>
        <time>2012-04-21T07:17:29Z</time>
      </trkpt>
      <trkpt lat="42.8968" lon="0.13422">
        <ele>2070.336426</ele>
        <time>2012-04-21T07:17:54Z</time>
      </trkpt>
      <trkpt lat="42.89669" lon="0.13418">
        <ele>2073.700928</ele>
        <time>2012-04-21T07:18:15Z</time>
      </trkpt>
      <trkpt lat="42.89659" lon="0.13414">
        <ele>2076.104492</ele>
        <time>2012-04-21T07:18:32Z</time>
      </trkpt>
      <trkpt lat="42.89648" lon="0.1341">
        <ele>2075.142822</ele>
        <time>2012-04-21T07:18:42Z</time>
      </trkpt>
      <trkpt lat="42.89638" lon="0.13413">
        <ele>2076.104492</ele>
        <time>2012-04-21T07:18:58Z</time>
      </trkpt>
      <trkpt lat="42.89629" lon="0.13419">
        <ele>2076.104492</ele>
        <time>2012-04-21T07:19:13Z</time>
      </trkpt>
      <trkpt lat="42.89618" lon="0.13417">
        <ele>2074.181641</ele>
        <time>2012-04-21T07:19:30Z</time>
      </trkpt>
      <trkpt lat="42.89615" lon="0.13417">
        <ele>2074.662354</ele>
        <time>2012-04-21T07:19:33Z</time>
      </trkpt>
      <trkpt lat="42.89612" lon="0.13416">
        <ele>2075.142822</ele>
        <time>2012-04-21T07:19:43Z</time>
      </trkpt>
      <trkpt lat="42.89605" lon="0.13414">
        <ele>2077.546387</ele>
        <time>2012-04-21T07:19:51Z</time>
      </trkpt>
      <trkpt lat="42.89603" lon="0.13414">
        <ele>2077.546387</ele>
        <time>2012-04-21T07:19:54Z</time>
      </trkpt>
      <trkpt lat="42.89597" lon="0.13412">
        <ele>2080.911133</ele>
        <time>2012-04-21T07:20:08Z</time>
      </trkpt>
      <trkpt lat="42.89596" lon="0.13413">
        <ele>2081.391602</ele>
        <time>2012-04-21T07:20:14Z</time>
      </trkpt>
      <trkpt lat="42.89591" lon="0.13409">
        <ele>2083.314209</ele>
        <time>2012-04-21T07:20:35Z</time>
      </trkpt>
      <trkpt lat="42.89579" lon="0.13405">
        <ele>2083.794922</ele>
        <time>2012-04-21T07:20:54Z</time>
      </trkpt>
      <trkpt lat="42.89576" lon="0.13402">
        <ele>2083.794922</ele>
        <time>2012-04-21T07:20:59Z</time>
      </trkpt>
      <trkpt lat="42.89566" lon="0.13395">
        <ele>2086.198242</ele>
        <time>2012-04-21T07:21:17Z</time>
      </trkpt>
      <trkpt lat="42.89552" lon="0.13389">
        <ele>2089.082031</ele>
        <time>2012-04-21T07:21:43Z</time>
      </trkpt>
      <trkpt lat="42.89544" lon="0.13387">
        <ele>2093.888916</ele>
        <time>2012-04-21T07:22:05Z</time>
      </trkpt>
      <trkpt lat="42.89537" lon="0.13385">
        <ele>2096.292236</ele>
        <time>2012-04-21T07:22:18Z</time>
      </trkpt>
      <trkpt lat="42.89529" lon="0.13378">
        <ele>2099.656738</ele>
        <time>2012-04-21T07:22:36Z</time>
      </trkpt>
      <trkpt lat="42.89522" lon="0.1337">
        <ele>2100.137451</ele>
        <time>2012-04-21T07:22:58Z</time>
      </trkpt>
      <trkpt lat="42.89517" lon="0.13361">
        <ele>2104.943848</ele>
        <time>2012-04-21T07:23:10Z</time>
      </trkpt>
      <trkpt lat="42.89514" lon="0.13346">
        <ele>2112.153809</ele>
        <time>2012-04-21T07:23:26Z</time>
      </trkpt>
      <trkpt lat="42.89514" lon="0.13334">
        <ele>2116.479736</ele>
        <time>2012-04-21T07:23:42Z</time>
      </trkpt>
      <trkpt lat="42.89506" lon="0.13335">
        <ele>2117.440918</ele>
        <time>2012-04-21T07:24:00Z</time>
      </trkpt>
      <trkpt lat="42.89496" lon="0.13341">
        <ele>2117.440918</ele>
        <time>2012-04-21T07:24:18Z</time>
      </trkpt>
      <trkpt lat="42.89496" lon="0.13347">
        <ele>2117.440918</ele>
        <time>2012-04-21T07:24:35Z</time>
      </trkpt>
      <trkpt lat="42.89487" lon="0.13353">
        <ele>2118.402344</ele>
        <time>2012-04-21T07:24:56Z</time>
      </trkpt>
      <trkpt lat="42.89477" lon="0.13346">
        <ele>2118.402344</ele>
        <time>2012-04-21T07:25:25Z</time>
      </trkpt>
      <trkpt lat="42.89473" lon="0.13333">
        <ele>2115.999023</ele>
        <time>2012-04-21T07:25:41Z</time>
      </trkpt>
      <trkpt lat="42.89475" lon="0.13319">
        <ele>2115.999023</ele>
        <time>2012-04-21T07:26:02Z</time>
      </trkpt>
      <trkpt lat="42.89483" lon="0.13302">
        <ele>2117.440918</ele>
        <time>2012-04-21T07:26:23Z</time>
      </trkpt>
      <trkpt lat="42.89483" lon="0.133">
        <ele>2117.440918</ele>
        <time>2012-04-21T07:26:27Z</time>
      </trkpt>
      <trkpt lat="42.89481" lon="0.1329">
        <ele>2122.247559</ele>
        <time>2012-04-21T07:26:52Z</time>
      </trkpt>
      <trkpt lat="42.89471" lon="0.13287">
        <ele>2129.45752</ele>
        <time>2012-04-21T07:27:29Z</time>
      </trkpt>
      <trkpt lat="42.89458" lon="0.13281">
        <ele>2130.899658</ele>
        <time>2012-04-21T07:27:52Z</time>
      </trkpt>
      <trkpt lat="42.8945" lon="0.13271">
        <ele>2133.783447</ele>
        <time>2012-04-21T07:28:18Z</time>
      </trkpt>
      <trkpt lat="42.89455" lon="0.13265">
        <ele>2133.302734</ele>
        <time>2012-04-21T07:28:38Z</time>
      </trkpt>
      <trkpt lat="42.89466" lon="0.13248">
        <ele>2133.783447</ele>
        <time>2012-04-21T07:29:11Z</time>
      </trkpt>
      <trkpt lat="42.89462" lon="0.13242">
        <ele>2135.706055</ele>
        <time>2012-04-21T07:29:24Z</time>
      </trkpt>
      <trkpt lat="42.89462" lon="0.13241">
        <ele>2135.706055</ele>
        <time>2012-04-21T07:29:26Z</time>
      </trkpt>
      <trkpt lat="42.89457" lon="0.13235">
        <ele>2140.032227</ele>
        <time>2012-04-21T07:29:52Z</time>
      </trkpt>
      <trkpt lat="42.89447" lon="0.1323">
        <ele>2143.396729</ele>
        <time>2012-04-21T07:30:19Z</time>
      </trkpt>
      <trkpt lat="42.89438" lon="0.13227">
        <ele>2145.800049</ele>
        <time>2012-04-21T07:30:42Z</time>
      </trkpt>
      <trkpt lat="42.89434" lon="0.13223">
        <ele>2148.203125</ele>
        <time>2012-04-21T07:30:54Z</time>
      </trkpt>
      <trkpt lat="42.89426" lon="0.13219">
        <ele>2154.932373</ele>
        <time>2012-04-21T07:31:15Z</time>
      </trkpt>
      <trkpt lat="42.89419" lon="0.13218">
        <ele>2160.700439</ele>
        <time>2012-04-21T07:31:42Z</time>
      </trkpt>
      <trkpt lat="42.8942" lon="0.13213">
        <ele>2160.700439</ele>
        <time>2012-04-21T07:32:26Z</time>
      </trkpt>
      <trkpt lat="42.89422" lon="0.1321">
        <ele>2160.219727</ele>
        <time>2012-04-21T07:32:37Z</time>
      </trkpt>
      <trkpt lat="42.89427" lon="0.13203">
        <ele>2160.700439</ele>
        <time>2012-04-21T07:32:50Z</time>
      </trkpt>
      <trkpt lat="42.8944" lon="0.1319">
        <ele>2163.10376</ele>
        <time>2012-04-21T07:33:25Z</time>
      </trkpt>
      <trkpt lat="42.89441" lon="0.1319">
        <ele>2163.10376</ele>
        <time>2012-04-21T07:33:26Z</time>
      </trkpt>
      <trkpt lat="42.89452" lon="0.13182">
        <ele>2164.545654</ele>
        <time>2012-04-21T07:33:47Z</time>
      </trkpt>
      <trkpt lat="42.89442" lon="0.13175">
        <ele>2166.948975</ele>
        <time>2012-04-21T07:34:15Z</time>
      </trkpt>
      <trkpt lat="42.89424" lon="0.13164">
        <ele>2170.794189</ele>
        <time>2012-04-21T07:34:50Z</time>
      </trkpt>
      <trkpt lat="42.89409" lon="0.13163">
        <ele>2174.158936</ele>
        <time>2012-04-21T07:35:16Z</time>
      </trkpt>
      <trkpt lat="42.89402" lon="0.13164">
        <ele>2177.042969</ele>
        <time>2012-04-21T07:35:34Z</time>
      </trkpt>
      <trkpt lat="42.894" lon="0.13154">
        <ele>2180.888184</ele>
        <time>2012-04-21T07:36:00Z</time>
      </trkpt>
      <trkpt lat="42.89404" lon="0.13138">
        <ele>2183.29126</ele>
        <time>2012-04-21T07:37:20Z</time>
      </trkpt>
      <trkpt lat="42.89395" lon="0.13137">
        <ele>2186.655762</ele>
        <time>2012-04-21T07:37:37Z</time>
      </trkpt>
      <trkpt lat="42.89385" lon="0.1314">
        <ele>2189.059326</ele>
        <time>2012-04-21T07:37:56Z</time>
      </trkpt>
      <trkpt lat="42.89378" lon="0.13143">
        <ele>2190.981934</ele>
        <time>2012-04-21T07:38:15Z</time>
      </trkpt>
      <trkpt lat="42.89369" lon="0.13146">
        <ele>2192.904541</ele>
        <time>2012-04-21T07:38:48Z</time>
      </trkpt>
      <trkpt lat="42.89362" lon="0.13148">
        <ele>2194.346436</ele>
        <time>2012-04-21T07:39:09Z</time>
      </trkpt>
      <trkpt lat="42.89354" lon="0.13152">
        <ele>2194.827148</ele>
        <time>2012-04-21T07:39:27Z</time>
      </trkpt>
      <trkpt lat="42.89351" lon="0.13153">
        <ele>2195.307861</ele>
        <time>2012-04-21T07:39:33Z</time>
      </trkpt>
      <trkpt lat="42.89343" lon="0.13141">
        <ele>2197.230469</ele>
        <time>2012-04-21T07:39:51Z</time>
      </trkpt>
      <trkpt lat="42.89339" lon="0.13125">
        <ele>2199.153076</ele>
        <time>2012-04-21T07:40:25Z</time>
      </trkpt>
      <trkpt lat="42.89333" lon="0.13119">
        <ele>2201.556396</ele>
        <time>2012-04-21T07:40:41Z</time>
      </trkpt>
      <trkpt lat="42.89328" lon="0.13115">
        <ele>2203.959717</ele>
        <time>2012-04-21T07:40:53Z</time>
      </trkpt>
      <trkpt lat="42.89319" lon="0.13107">
        <ele>2206.363037</ele>
        <time>2012-04-21T07:41:12Z</time>
      </trkpt>
      <trkpt lat="42.89311" lon="0.13104">
        <ele>2207.805176</ele>
        <time>2012-04-21T07:41:23Z</time>
      </trkpt>
      <trkpt lat="42.89304" lon="0.13103">
        <ele>2206.84375</ele>
        <time>2012-04-21T07:41:42Z</time>
      </trkpt>
      <trkpt lat="42.89295" lon="0.131">
        <ele>2206.84375</ele>
        <time>2012-04-21T07:41:58Z</time>
      </trkpt>
      <trkpt lat="42.89294" lon="0.13099">
        <ele>2207.324463</ele>
        <time>2012-04-21T07:42:01Z</time>
      </trkpt>
      <trkpt lat="42.89285" lon="0.13099">
        <ele>2207.805176</ele>
        <time>2012-04-21T07:42:18Z</time>
      </trkpt>
      <trkpt lat="42.89275" lon="0.13101">
        <ele>2208.766357</ele>
        <time>2012-04-21T07:42:48Z</time>
      </trkpt>
      <trkpt lat="42.89266" lon="0.13102">
        <ele>2209.24707</ele>
        <time>2012-04-21T07:43:05Z</time>
      </trkpt>
      <trkpt lat="42.89255" lon="0.131">
        <ele>2211.169678</ele>
        <time>2012-04-21T07:43:21Z</time>
      </trkpt>
      <trkpt lat="42.89253" lon="0.13098">
        <ele>2212.130859</ele>
        <time>2012-04-21T07:43:24Z</time>
      </trkpt>
      <trkpt lat="42.89245" lon="0.13087">
        <ele>2215.976074</ele>
        <time>2012-04-21T07:43:41Z</time>
      </trkpt>
      <trkpt lat="42.89242" lon="0.13081">
        <ele>2218.379395</ele>
        <time>2012-04-21T07:43:50Z</time>
      </trkpt>
      <trkpt lat="42.89237" lon="0.13082">
        <ele>2219.821289</ele>
        <time>2012-04-21T07:43:59Z</time>
      </trkpt>
      <trkpt lat="42.89226" lon="0.13087">
        <ele>2222.705566</ele>
        <time>2012-04-21T07:44:18Z</time>
      </trkpt>
      <trkpt lat="42.89221" lon="0.13087">
        <ele>2222.224854</ele>
        <time>2012-04-21T07:44:27Z</time>
      </trkpt>
      <trkpt lat="42.89212" lon="0.13088">
        <ele>2223.666748</ele>
        <time>2012-04-21T07:44:45Z</time>
      </trkpt>
      <trkpt lat="42.89202" lon="0.13088">
        <ele>2226.070068</ele>
        <time>2012-04-21T07:45:07Z</time>
      </trkpt>
      <trkpt lat="42.89194" lon="0.13088">
        <ele>2229.43457</ele>
        <time>2012-04-21T07:45:42Z</time>
      </trkpt>
      <trkpt lat="42.8918" lon="0.13089">
        <ele>2226.070068</ele>
        <time>2012-04-21T07:46:45Z</time>
      </trkpt>
      <trkpt lat="42.89159" lon="0.13098">
        <ele>2227.992676</ele>
        <time>2012-04-21T07:47:22Z</time>
      </trkpt>
      <trkpt lat="42.89153" lon="0.13104">
        <ele>2230.876709</ele>
        <time>2012-04-21T07:47:40Z</time>
      </trkpt>
      <trkpt lat="42.89145" lon="0.13114">
        <ele>2236.164062</ele>
        <time>2012-04-21T07:48:08Z</time>
      </trkpt>
      <trkpt lat="42.89146" lon="0.13115">
        <ele>2237.125244</ele>
        <time>2012-04-21T07:48:10Z</time>
      </trkpt>
      <trkpt lat="42.89137" lon="0.13131">
        <ele>2243.854492</ele>
        <time>2012-04-21T07:48:27Z</time>
      </trkpt>
      <trkpt lat="42.89136" lon="0.13132">
        <ele>2244.334961</ele>
        <time>2012-04-21T07:48:28Z</time>
      </trkpt>
      <trkpt lat="42.89127" lon="0.13134">
        <ele>2247.699707</ele>
        <time>2012-04-21T07:48:50Z</time>
      </trkpt>
      <trkpt lat="42.89121" lon="0.13132">
        <ele>2248.660889</ele>
        <time>2012-04-21T07:48:58Z</time>
      </trkpt>
      <trkpt lat="42.89114" lon="0.13136">
        <ele>2252.987061</ele>
        <time>2012-04-21T07:49:12Z</time>
      </trkpt>
      <trkpt lat="42.89112" lon="0.1314">
        <ele>2254.428955</ele>
        <time>2012-04-21T07:49:31Z</time>
      </trkpt>
      <trkpt lat="42.89108" lon="0.13135">
        <ele>2252.025635</ele>
        <time>2012-04-21T07:52:36Z</time>
      </trkpt>
      <trkpt lat="42.89097" lon="0.13129">
        <ele>2250.583496</ele>
        <time>2012-04-21T07:52:51Z</time>
      </trkpt>
      <trkpt lat="42.89091" lon="0.13136">
        <ele>2251.064209</ele>
        <time>2012-04-21T07:53:09Z</time>
      </trkpt>
      <trkpt lat="42.89087" lon="0.13148">
        <ele>2253.948486</ele>
        <time>2012-04-21T07:53:22Z</time>
      </trkpt>
      <trkpt lat="42.89085" lon="0.1315">
        <ele>2253.948486</ele>
        <time>2012-04-21T07:53:34Z</time>
      </trkpt>
      <trkpt lat="42.89083" lon="0.13148">
        <ele>2253.467773</ele>
        <time>2012-04-21T07:53:36Z</time>
      </trkpt>
      <trkpt lat="42.89077" lon="0.13141">
        <ele>2251.544922</ele>
        <time>2012-04-21T07:54:02Z</time>
      </trkpt>
      <trkpt lat="42.89075" lon="0.13145">
        <ele>2251.064209</ele>
        <time>2012-04-21T07:54:06Z</time>
      </trkpt>
      <trkpt lat="42.89076" lon="0.13159">
        <ele>2251.544922</ele>
        <time>2012-04-21T07:54:21Z</time>
      </trkpt>
      <trkpt lat="42.89076" lon="0.13184">
        <ele>2256.832275</ele>
        <time>2012-04-21T07:55:02Z</time>
      </trkpt>
      <trkpt lat="42.89065" lon="0.13181">
        <ele>2265.9646</ele>
        <time>2012-04-21T07:56:23Z</time>
      </trkpt>
      <trkpt lat="42.89058" lon="0.13171">
        <ele>2267.406494</ele>
        <time>2012-04-21T07:57:00Z</time>
      </trkpt>
      <trkpt lat="42.89056" lon="0.13175">
        <ele>2269.810059</ele>
        <time>2012-04-21T07:57:13Z</time>
      </trkpt>
      <trkpt lat="42.89044" lon="0.13177">
        <ele>2275.577881</ele>
        <time>2012-04-21T07:57:34Z</time>
      </trkpt>
      <trkpt lat="42.89038" lon="0.13174">
        <ele>2278.461914</ele>
        <time>2012-04-21T07:58:19Z</time>
      </trkpt>
      <trkpt lat="42.89036" lon="0.13176">
        <ele>2278.461914</ele>
        <time>2012-04-21T07:58:36Z</time>
      </trkpt>
      <trkpt lat="42.89029" lon="0.13178">
        <ele>2279.903809</ele>
        <time>2012-04-21T07:58:48Z</time>
      </trkpt>
      <trkpt lat="42.89013" lon="0.13183">
        <ele>2285.671875</ele>
        <time>2012-04-21T07:59:08Z</time>
      </trkpt>
      <trkpt lat="42.89005" lon="0.13178">
        <ele>2289.51709</ele>
        <time>2012-04-21T07:59:24Z</time>
      </trkpt>
      <trkpt lat="42.88992" lon="0.13178">
        <ele>2293.362305</ele>
        <time>2012-04-21T07:59:51Z</time>
      </trkpt>
      <trkpt lat="42.8899" lon="0.1318">
        <ele>2293.362305</ele>
        <time>2012-04-21T07:59:53Z</time>
      </trkpt>
      <trkpt lat="42.88981" lon="0.13186">
        <ele>2296.726807</ele>
        <time>2012-04-21T08:00:08Z</time>
      </trkpt>
      <trkpt lat="42.88975" lon="0.13183">
        <ele>2297.20752</ele>
        <time>2012-04-21T08:00:16Z</time>
      </trkpt>
      <trkpt lat="42.88962" lon="0.13188">
        <ele>2296.726807</ele>
        <time>2012-04-21T08:00:37Z</time>
      </trkpt>
      <trkpt lat="42.88953" lon="0.13201">
        <ele>2302.01416</ele>
        <time>2012-04-21T08:00:58Z</time>
      </trkpt>
      <trkpt lat="42.88944" lon="0.13192">
        <ele>2303.937012</ele>
        <time>2012-04-21T08:01:29Z</time>
      </trkpt>
      <trkpt lat="42.88942" lon="0.13194">
        <ele>2303.937012</ele>
        <time>2012-04-21T08:01:36Z</time>
      </trkpt>
      <trkpt lat="42.8894" lon="0.13197">
        <ele>2303.937012</ele>
        <time>2012-04-21T08:01:40Z</time>
      </trkpt>
      <trkpt lat="42.88933" lon="0.13202">
        <ele>2303.937012</ele>
        <time>2012-04-21T08:01:48Z</time>
      </trkpt>
      <trkpt lat="42.88929" lon="0.13205">
        <ele>2303.456299</ele>
        <time>2012-04-21T08:01:55Z</time>
      </trkpt>
      <trkpt lat="42.88925" lon="0.13205">
        <ele>2302.975586</ele>
        <time>2012-04-21T08:02:16Z</time>
      </trkpt>
      <trkpt lat="42.88924" lon="0.13202">
        <ele>2302.975586</ele>
        <time>2012-04-21T08:02:19Z</time>
      </trkpt>
      <trkpt lat="42.88918" lon="0.13187">
        <ele>2302.975586</ele>
        <time>2012-04-21T08:02:35Z</time>
      </trkpt>
      <trkpt lat="42.88902" lon="0.1319">
        <ele>2299.130127</ele>
        <time>2012-04-21T08:03:43Z</time>
      </trkpt>
      <trkpt lat="42.88901" lon="0.13189">
        <ele>2299.61084</ele>
        <time>2012-04-21T08:03:44Z</time>
      </trkpt>
      <trkpt lat="42.88894" lon="0.13182">
        <ele>2301.533691</ele>
        <time>2012-04-21T08:04:05Z</time>
      </trkpt>
      <trkpt lat="42.8889" lon="0.13187">
        <ele>2307.301514</ele>
        <time>2012-04-21T08:04:35Z</time>
      </trkpt>
      <trkpt lat="42.88888" lon="0.13189">
        <ele>2308.743408</ele>
        <time>2012-04-21T08:04:44Z</time>
      </trkpt>
      <trkpt lat="42.88881" lon="0.132">
        <ele>2309.224121</ele>
        <time>2012-04-21T08:05:05Z</time>
      </trkpt>
      <trkpt lat="42.88871" lon="0.13216">
        <ele>2309.70459</ele>
        <time>2012-04-21T08:05:26Z</time>
      </trkpt>
      <trkpt lat="42.88871" lon="0.13244">
        <ele>2315.472656</ele>
        <time>2012-04-21T08:05:57Z</time>
      </trkpt>
      <trkpt lat="42.88855" lon="0.13237">
        <ele>2331.814941</ele>
        <time>2012-04-21T08:07:39Z</time>
      </trkpt>
      <trkpt lat="42.88857" lon="0.13236">
        <ele>2332.295898</ele>
        <time>2012-04-21T08:09:01Z</time>
      </trkpt>
      <trkpt lat="42.88856" lon="0.13237">
        <ele>2333.25708</ele>
        <time>2012-04-21T08:09:08Z</time>
      </trkpt>
      <trkpt lat="42.88849" lon="0.13239">
        <ele>2335.6604</ele>
        <time>2012-04-21T08:09:31Z</time>
      </trkpt>
      <trkpt lat="42.88846" lon="0.13234">
        <ele>2334.699219</ele>
        <time>2012-04-21T08:10:02Z</time>
      </trkpt>
      <trkpt lat="42.88839" lon="0.13221">
        <ele>2337.102295</ele>
        <time>2012-04-21T08:10:15Z</time>
      </trkpt>
      <trkpt lat="42.88837" lon="0.1319">
        <ele>2350.560791</ele>
        <time>2012-04-21T08:11:17Z</time>
      </trkpt>
      <trkpt lat="42.88832" lon="0.13173">
        <ele>2357.290039</ele>
        <time>2012-04-21T08:11:34Z</time>
      </trkpt>
      <trkpt lat="42.88831" lon="0.1317">
        <ele>2358.251221</ele>
        <time>2012-04-21T08:11:38Z</time>
      </trkpt>
      <trkpt lat="42.8883" lon="0.13168">
        <ele>2359.212646</ele>
        <time>2012-04-21T08:11:53Z</time>
      </trkpt>
      <trkpt lat="42.88833" lon="0.13169">
        <ele>2363.057861</ele>
        <time>2012-04-21T08:12:13Z</time>
      </trkpt>
      <trkpt lat="42.88832" lon="0.13163">
        <ele>2364.019287</ele>
        <time>2012-04-21T08:12:26Z</time>
      </trkpt>
      <trkpt lat="42.88828" lon="0.13152">
        <ele>2370.267822</ele>
        <time>2012-04-21T08:12:50Z</time>
      </trkpt>
      <trkpt lat="42.88826" lon="0.13143">
        <ele>2375.554932</ele>
        <time>2012-04-21T08:13:24Z</time>
      </trkpt>
      <trkpt lat="42.88826" lon="0.13142">
        <ele>2375.554932</ele>
        <time>2012-04-21T08:13:25Z</time>
      </trkpt>
      <trkpt lat="42.88821" lon="0.13128">
        <ele>2376.035645</ele>
        <time>2012-04-21T08:13:44Z</time>
      </trkpt>
      <trkpt lat="42.88818" lon="0.13122">
        <ele>2377.477539</ele>
        <time>2012-04-21T08:13:50Z</time>
      </trkpt>
      <trkpt lat="42.88815" lon="0.1311">
        <ele>2379.880859</ele>
        <time>2012-04-21T08:14:02Z</time>
      </trkpt>
      <trkpt lat="42.88813" lon="0.13094">
        <ele>2382.764893</ele>
        <time>2012-04-21T08:14:16Z</time>
      </trkpt>
      <trkpt lat="42.88813" lon="0.13087">
        <ele>2383.726318</ele>
        <time>2012-04-21T08:14:24Z</time>
      </trkpt>
      <trkpt lat="42.88815" lon="0.13082">
        <ele>2383.245605</ele>
        <time>2012-04-21T08:14:28Z</time>
      </trkpt>
      <trkpt lat="42.88816" lon="0.13078">
        <ele>2383.245605</ele>
        <time>2012-04-21T08:14:31Z</time>
      </trkpt>
      <trkpt lat="42.88821" lon="0.13064">
        <ele>2383.245605</ele>
        <time>2012-04-21T08:14:44Z</time>
      </trkpt>
      <trkpt lat="42.88822" lon="0.13055">
        <ele>2383.726318</ele>
        <time>2012-04-21T08:14:59Z</time>
      </trkpt>
      <trkpt lat="42.88826" lon="0.13072">
        <ele>2383.726318</ele>
        <time>2012-04-21T08:15:16Z</time>
      </trkpt>
      <trkpt lat="42.88827" lon="0.13082">
        <ele>2385.648926</ele>
        <time>2012-04-21T08:15:32Z</time>
      </trkpt>
      <trkpt lat="42.88829" lon="0.13069">
        <ele>2387.09082</ele>
        <time>2012-04-21T08:16:05Z</time>
      </trkpt>
      <trkpt lat="42.88829" lon="0.13066">
        <ele>2387.571533</ele>
        <time>2012-04-21T08:16:10Z</time>
      </trkpt>
      <trkpt lat="42.88833" lon="0.13055">
        <ele>2389.013428</ele>
        <time>2012-04-21T08:16:34Z</time>
      </trkpt>
      <trkpt lat="42.88841" lon="0.13044">
        <ele>2393.820068</ele>
        <time>2012-04-21T08:16:50Z</time>
      </trkpt>
      <trkpt lat="42.88842" lon="0.13064">
        <ele>2397.665527</ele>
        <time>2012-04-21T08:17:23Z</time>
      </trkpt>
      <trkpt lat="42.88843" lon="0.13062">
        <ele>2399.107422</ele>
        <time>2012-04-21T08:17:56Z</time>
      </trkpt>
      <trkpt lat="42.88844" lon="0.13059">
        <ele>2399.107422</ele>
        <time>2012-04-21T08:17:59Z</time>
      </trkpt>
      <trkpt lat="42.8885" lon="0.13042">
        <ele>2400.549316</ele>
        <time>2012-04-21T08:18:19Z</time>
      </trkpt>
      <trkpt lat="42.88851" lon="0.13037">
        <ele>2401.030029</ele>
        <time>2012-04-21T08:19:50Z</time>
      </trkpt>
      <trkpt lat="42.88853" lon="0.13036">
        <ele>2401.991211</ele>
        <time>2012-04-21T08:21:02Z</time>
      </trkpt>
      <trkpt lat="42.88852" lon="0.13034">
        <ele>2401.991211</ele>
        <time>2012-04-21T08:22:10Z</time>
      </trkpt>
      <trkpt lat="42.88856" lon="0.13039">
        <ele>2401.510742</ele>
        <time>2012-04-21T08:22:34Z</time>
      </trkpt>
      <trkpt lat="42.88861" lon="0.13049">
        <ele>2401.991211</ele>
        <time>2012-04-21T08:22:52Z</time>
      </trkpt>
      <trkpt lat="42.88861" lon="0.13058">
        <ele>2401.991211</ele>
        <time>2012-04-21T08:23:08Z</time>
      </trkpt>
      <trkpt lat="42.88861" lon="0.13061">
        <ele>2401.991211</ele>
        <time>2012-04-21T08:23:18Z</time>
      </trkpt>
      <trkpt lat="42.88857" lon="0.13072">
        <ele>2403.43335</ele>
        <time>2012-04-21T08:23:35Z</time>
      </trkpt>
      <trkpt lat="42.88857" lon="0.13081">
        <ele>2404.394531</ele>
        <time>2012-04-21T08:24:43Z</time>
      </trkpt>
      <trkpt lat="42.88854" lon="0.13086">
        <ele>2404.875244</ele>
        <time>2012-04-21T08:26:08Z</time>
      </trkpt>
      <trkpt lat="42.88851" lon="0.13096">
        <ele>2403.914062</ele>
        <time>2012-04-21T08:26:22Z</time>
      </trkpt>
      <trkpt lat="42.88851" lon="0.13094">
        <ele>2403.914062</ele>
        <time>2012-04-21T08:26:45Z</time>
      </trkpt>
      <trkpt lat="42.88855" lon="0.13087">
        <ele>2403.43335</ele>
        <time>2012-04-21T08:27:28Z</time>
      </trkpt>
      <trkpt lat="42.8886" lon="0.1307">
        <ele>2404.875244</ele>
        <time>2012-04-21T08:27:44Z</time>
      </trkpt>
      <trkpt lat="42.88859" lon="0.13069">
        <ele>2404.875244</ele>
        <time>2012-04-21T08:28:10Z</time>
      </trkpt>
      <trkpt lat="42.8886" lon="0.1307">
        <ele>2403.914062</ele>
        <time>2012-04-21T08:28:39Z</time>
      </trkpt>
      <trkpt lat="42.8886" lon="0.1307">
        <ele>2402.471924</ele>
        <time>2012-04-21T08:29:59Z</time>
      </trkpt>
      <trkpt lat="42.88861" lon="0.1307">
        <ele>2403.914062</ele>
        <time>2012-04-21T08:32:59Z</time>
      </trkpt>
      <trkpt lat="42.8886" lon="0.1307">
        <ele>2404.875244</ele>
        <time>2012-04-21T08:35:33Z</time>
      </trkpt>
      <trkpt lat="42.8886" lon="0.1307">
        <ele>2405.836426</ele>
        <time>2012-04-21T08:35:51Z</time>
      </trkpt>
      <trkpt lat="42.8886" lon="0.1307">
        <ele>2405.355957</ele>
        <time>2012-04-21T08:36:19Z</time>
      </trkpt>
      <trkpt lat="42.88861" lon="0.13069">
        <ele>2405.355957</ele>
        <time>2012-04-21T08:36:37Z</time>
      </trkpt>
      <trkpt lat="42.8886" lon="0.13069">
        <ele>2404.394531</ele>
        <time>2012-04-21T08:36:56Z</time>
      </trkpt>
      <trkpt lat="42.8886" lon="0.13068">
        <ele>2405.355957</ele>
        <time>2012-04-21T08:37:23Z</time>
      </trkpt>
      <trkpt lat="42.88859" lon="0.13068">
        <ele>2404.875244</ele>
        <time>2012-04-21T08:37:43Z</time>
      </trkpt>
      <trkpt lat="42.8886" lon="0.13068">
        <ele>2404.394531</ele>
        <time>2012-04-21T08:38:09Z</time>
      </trkpt>
      <trkpt lat="42.88859" lon="0.13068">
        <ele>2404.394531</ele>
        <time>2012-04-21T08:38:26Z</time>
      </trkpt>
      <trkpt lat="42.88859" lon="0.13068">
        <ele>2403.914062</ele>
        <time>2012-04-21T08:38:54Z</time>
      </trkpt>
      <trkpt lat="42.88859" lon="0.13068">
        <ele>2403.914062</ele>
        <time>2012-04-21T08:39:27Z</time>
      </trkpt>
      <trkpt lat="42.88859" lon="0.13067">
        <ele>2403.914062</ele>
        <time>2012-04-21T08:40:03Z</time>
      </trkpt>
      <trkpt lat="42.88859" lon="0.13068">
        <ele>2402.952637</ele>
        <time>2012-04-21T08:40:32Z</time>
      </trkpt>
      <trkpt lat="42.8886" lon="0.13068">
        <ele>2402.952637</ele>
        <time>2012-04-21T08:41:05Z</time>
      </trkpt>
      <trkpt lat="42.8886" lon="0.13068">
        <ele>2403.43335</ele>
        <time>2012-04-21T08:41:34Z</time>
      </trkpt>
      <trkpt lat="42.8886" lon="0.13068">
        <ele>2403.43335</ele>
        <time>2012-04-21T08:42:02Z</time>
      </trkpt>
      <trkpt lat="42.88861" lon="0.13068">
        <ele>2402.952637</ele>
        <time>2012-04-21T08:42:33Z</time>
      </trkpt>
      <trkpt lat="42.88862" lon="0.1307">
        <ele>2401.510742</ele>
        <time>2012-04-21T08:42:59Z</time>
      </trkpt>
      <trkpt lat="42.88862" lon="0.1307">
        <ele>2401.030029</ele>
        <time>2012-04-21T08:43:26Z</time>
      </trkpt>
      <trkpt lat="42.88862" lon="0.1307">
        <ele>2401.030029</ele>
        <time>2012-04-21T08:44:00Z</time>
      </trkpt>
      <trkpt lat="42.88862" lon="0.13071">
        <ele>2400.549316</ele>
        <time>2012-04-21T08:44:21Z</time>
      </trkpt>
      <trkpt lat="42.88863" lon="0.1307">
        <ele>2401.030029</ele>
        <time>2012-04-21T08:44:56Z</time>
      </trkpt>
      <trkpt lat="42.88865" lon="0.13069">
        <ele>2400.068848</ele>
        <time>2012-04-21T08:44:59Z</time>
      </trkpt>
      <trkpt lat="42.88869" lon="0.13063">
        <ele>2400.068848</ele>
        <time>2012-04-21T08:45:05Z</time>
      </trkpt>
      <trkpt lat="42.88873" lon="0.13049">
        <ele>2397.184814</ele>
        <time>2012-04-21T08:45:14Z</time>
      </trkpt>
      <trkpt lat="42.88874" lon="0.13046">
        <ele>2394.78125</ele>
        <time>2012-04-21T08:45:17Z</time>
      </trkpt>
      <trkpt lat="42.88865" lon="0.13025">
        <ele>2389.494141</ele>
        <time>2012-04-21T08:45:25Z</time>
      </trkpt>
      <trkpt lat="42.88867" lon="0.12993">
        <ele>2381.322998</ele>
        <time>2012-04-21T08:45:32Z</time>
      </trkpt>
      <trkpt lat="42.88865" lon="0.1299">
        <ele>2383.245605</ele>
        <time>2012-04-21T08:45:44Z</time>
      </trkpt>
      <trkpt lat="42.88866" lon="0.12985">
        <ele>2381.803711</ele>
        <time>2012-04-21T08:46:08Z</time>
      </trkpt>
      <trkpt lat="42.88885" lon="0.12978">
        <ele>2374.113037</ele>
        <time>2012-04-21T08:46:16Z</time>
      </trkpt>
      <trkpt lat="42.88887" lon="0.12969">
        <ele>2371.229004</ele>
        <time>2012-04-21T08:46:18Z</time>
      </trkpt>
      <trkpt lat="42.88911" lon="0.12956">
        <ele>2362.096436</ele>
        <time>2012-04-21T08:46:26Z</time>
      </trkpt>
      <trkpt lat="42.88922" lon="0.12949">
        <ele>2357.770752</ele>
        <time>2012-04-21T08:46:36Z</time>
      </trkpt>
      <trkpt lat="42.88922" lon="0.12949">
        <ele>2357.770752</ele>
        <time>2012-04-21T08:46:50Z</time>
      </trkpt>
      <trkpt lat="42.88946" lon="0.12944">
        <ele>2347.676758</ele>
        <time>2012-04-21T08:46:59Z</time>
      </trkpt>
      <trkpt lat="42.88951" lon="0.12943">
        <ele>2346.715332</ele>
        <time>2012-04-21T08:47:00Z</time>
      </trkpt>
      <trkpt lat="42.88958" lon="0.12941">
        <ele>2344.792725</ele>
        <time>2012-04-21T08:47:02Z</time>
      </trkpt>
      <trkpt lat="42.88963" lon="0.12946">
        <ele>2341.428223</ele>
        <time>2012-04-21T08:47:13Z</time>
      </trkpt>
      <trkpt lat="42.88963" lon="0.12947">
        <ele>2341.908936</ele>
        <time>2012-04-21T08:47:22Z</time>
      </trkpt>
      <trkpt lat="42.88959" lon="0.12951">
        <ele>2343.35083</ele>
        <time>2012-04-21T08:47:31Z</time>
      </trkpt>
      <trkpt lat="42.88954" lon="0.12958">
        <ele>2341.908936</ele>
        <time>2012-04-21T08:47:43Z</time>
      </trkpt>
      <trkpt lat="42.88949" lon="0.12979">
        <ele>2337.102295</ele>
        <time>2012-04-21T08:47:50Z</time>
      </trkpt>
      <trkpt lat="42.88961" lon="0.12987">
        <ele>2331.334229</ele>
        <time>2012-04-21T08:47:59Z</time>
      </trkpt>
      <trkpt lat="42.88961" lon="0.12988">
        <ele>2330.85376</ele>
        <time>2012-04-21T08:48:04Z</time>
      </trkpt>
      <trkpt lat="42.88969" lon="0.12988">
        <ele>2326.047119</ele>
        <time>2012-04-21T08:48:08Z</time>
      </trkpt>
      <trkpt lat="42.88976" lon="0.1298">
        <ele>2323.16333</ele>
        <time>2012-04-21T08:48:11Z</time>
      </trkpt>
      <trkpt lat="42.88981" lon="0.12989">
        <ele>2317.875977</ele>
        <time>2012-04-21T08:48:16Z</time>
      </trkpt>
      <trkpt lat="42.88994" lon="0.12999">
        <ele>2308.262695</ele>
        <time>2012-04-21T08:48:24Z</time>
      </trkpt>
      <trkpt lat="42.88992" lon="0.13005">
        <ele>2307.301514</ele>
        <time>2012-04-21T08:48:35Z</time>
      </trkpt>
      <trkpt lat="42.88992" lon="0.13005">
        <ele>2307.301514</ele>
        <time>2012-04-21T08:48:44Z</time>
      </trkpt>
      <trkpt lat="42.88992" lon="0.13006">
        <ele>2307.782227</ele>
        <time>2012-04-21T08:48:46Z</time>
      </trkpt>
      <trkpt lat="42.89005" lon="0.13021">
        <ele>2300.091797</ele>
        <time>2012-04-21T08:48:56Z</time>
      </trkpt>
      <trkpt lat="42.89004" lon="0.13026">
        <ele>2298.649414</ele>
        <time>2012-04-21T08:48:57Z</time>
      </trkpt>
      <trkpt lat="42.89017" lon="0.13029">
        <ele>2288.075195</ele>
        <time>2012-04-21T08:49:05Z</time>
      </trkpt>
      <trkpt lat="42.89017" lon="0.13027">
        <ele>2287.594482</ele>
        <time>2012-04-21T08:49:25Z</time>
      </trkpt>
      <trkpt lat="42.89017" lon="0.13028">
        <ele>2287.11377</ele>
        <time>2012-04-21T08:49:51Z</time>
      </trkpt>
      <trkpt lat="42.89016" lon="0.13029">
        <ele>2286.152588</ele>
        <time>2012-04-21T08:50:22Z</time>
      </trkpt>
      <trkpt lat="42.89016" lon="0.13029">
        <ele>2287.11377</ele>
        <time>2012-04-21T08:50:45Z</time>
      </trkpt>
      <trkpt lat="42.89018" lon="0.13039">
        <ele>2285.191162</ele>
        <time>2012-04-21T08:50:49Z</time>
      </trkpt>
      <trkpt lat="42.89026" lon="0.13042">
        <ele>2281.826416</ele>
        <time>2012-04-21T08:50:53Z</time>
      </trkpt>
      <trkpt lat="42.89036" lon="0.13057">
        <ele>2274.616699</ele>
        <time>2012-04-21T08:50:59Z</time>
      </trkpt>
      <trkpt lat="42.89035" lon="0.13075">
        <ele>2271.251953</ele>
        <time>2012-04-21T08:51:03Z</time>
      </trkpt>
      <trkpt lat="42.89039" lon="0.13104">
        <ele>2267.887207</ele>
        <time>2012-04-21T08:51:09Z</time>
      </trkpt>
      <trkpt lat="42.89045" lon="0.1313">
        <ele>2263.561279</ele>
        <time>2012-04-21T08:51:14Z</time>
      </trkpt>
      <trkpt lat="42.89046" lon="0.13142">
        <ele>2262.119385</ele>
        <time>2012-04-21T08:51:16Z</time>
      </trkpt>
      <trkpt lat="42.89064" lon="0.1316">
        <ele>2252.506348</ele>
        <time>2012-04-21T08:51:23Z</time>
      </trkpt>
      <trkpt lat="42.89073" lon="0.13157">
        <ele>2246.738281</ele>
        <time>2012-04-21T08:51:26Z</time>
      </trkpt>
      <trkpt lat="42.89111" lon="0.13133">
        <ele>2233.760498</ele>
        <time>2012-04-21T08:51:35Z</time>
      </trkpt>
      <trkpt lat="42.89114" lon="0.13142">
        <ele>2233.279785</ele>
        <time>2012-04-21T08:51:47Z</time>
      </trkpt>
      <trkpt lat="42.89114" lon="0.13142">
        <ele>2233.279785</ele>
        <time>2012-04-21T08:52:15Z</time>
      </trkpt>
      <trkpt lat="42.89114" lon="0.13142">
        <ele>2233.279785</ele>
        <time>2012-04-21T08:52:40Z</time>
      </trkpt>
      <trkpt lat="42.89114" lon="0.13142">
        <ele>2233.279785</ele>
        <time>2012-04-21T08:53:04Z</time>
      </trkpt>
      <trkpt lat="42.89113" lon="0.13142">
        <ele>2233.760498</ele>
        <time>2012-04-21T08:53:23Z</time>
      </trkpt>
      <trkpt lat="42.8913" lon="0.13134">
        <ele>2229.915283</ele>
        <time>2012-04-21T08:53:29Z</time>
      </trkpt>
      <trkpt lat="42.89143" lon="0.13121">
        <ele>2226.070068</ele>
        <time>2012-04-21T08:53:35Z</time>
      </trkpt>
      <trkpt lat="42.89163" lon="0.13096">
        <ele>2221.263428</ele>
        <time>2012-04-21T08:53:42Z</time>
      </trkpt>
      <trkpt lat="42.89172" lon="0.1309">
        <ele>2219.34082</ele>
        <time>2012-04-21T08:53:44Z</time>
      </trkpt>
      <trkpt lat="42.89234" lon="0.13068">
        <ele>2208.285645</ele>
        <time>2012-04-21T08:54:00Z</time>
      </trkpt>
      <trkpt lat="42.89255" lon="0.13077">
        <ele>2204.921143</ele>
        <time>2012-04-21T08:54:05Z</time>
      </trkpt>
      <trkpt lat="42.89284" lon="0.13084">
        <ele>2202.036865</ele>
        <time>2012-04-21T08:54:17Z</time>
      </trkpt>
      <trkpt lat="42.89292" lon="0.13083">
        <ele>2200.594971</ele>
        <time>2012-04-21T08:54:19Z</time>
      </trkpt>
      <trkpt lat="42.89311" lon="0.13094">
        <ele>2196.269287</ele>
        <time>2012-04-21T08:54:23Z</time>
      </trkpt>
      <trkpt lat="42.89329" lon="0.13114">
        <ele>2194.346436</ele>
        <time>2012-04-21T08:54:28Z</time>
      </trkpt>
      <trkpt lat="42.89329" lon="0.13118">
        <ele>2194.827148</ele>
        <time>2012-04-21T08:54:44Z</time>
      </trkpt>
      <trkpt lat="42.89329" lon="0.13118">
        <ele>2194.827148</ele>
        <time>2012-04-21T08:55:03Z</time>
      </trkpt>
      <trkpt lat="42.89327" lon="0.13121">
        <ele>2193.385254</ele>
        <time>2012-04-21T08:55:21Z</time>
      </trkpt>
      <trkpt lat="42.89326" lon="0.13123">
        <ele>2193.865967</ele>
        <time>2012-04-21T08:55:24Z</time>
      </trkpt>
      <trkpt lat="42.89325" lon="0.13127">
        <ele>2196.269287</ele>
        <time>2012-04-21T08:55:41Z</time>
      </trkpt>
      <trkpt lat="42.89332" lon="0.13126">
        <ele>2195.307861</ele>
        <time>2012-04-21T08:55:44Z</time>
      </trkpt>
      <trkpt lat="42.8934" lon="0.13163">
        <ele>2188.578857</ele>
        <time>2012-04-21T08:55:52Z</time>
      </trkpt>
      <trkpt lat="42.89345" lon="0.1318">
        <ele>2183.29126</ele>
        <time>2012-04-21T08:55:59Z</time>
      </trkpt>
      <trkpt lat="42.89345" lon="0.13179">
        <ele>2182.330078</ele>
        <time>2012-04-21T08:56:23Z</time>
      </trkpt>
      <trkpt lat="42.89344" lon="0.13178">
        <ele>2182.330078</ele>
        <time>2012-04-21T08:56:43Z</time>
      </trkpt>
      <trkpt lat="42.89343" lon="0.13178">
        <ele>2182.330078</ele>
        <time>2012-04-21T08:57:10Z</time>
      </trkpt>
      <trkpt lat="42.89343" lon="0.13179">
        <ele>2181.849365</ele>
        <time>2012-04-21T08:57:44Z</time>
      </trkpt>
      <trkpt lat="42.89343" lon="0.13179">
        <ele>2182.810547</ele>
        <time>2012-04-21T08:58:08Z</time>
      </trkpt>
      <trkpt lat="42.89362" lon="0.13194">
        <ele>2177.042969</ele>
        <time>2012-04-21T08:58:16Z</time>
      </trkpt>
      <trkpt lat="42.89384" lon="0.13198">
        <ele>2167.429443</ele>
        <time>2012-04-21T08:58:22Z</time>
      </trkpt>
      <trkpt lat="42.89403" lon="0.13213">
        <ele>2159.739014</ele>
        <time>2012-04-21T08:58:27Z</time>
      </trkpt>
      <trkpt lat="42.89421" lon="0.13222">
        <ele>2150.125977</ele>
        <time>2012-04-21T08:58:34Z</time>
      </trkpt>
      <trkpt lat="42.8943" lon="0.13229">
        <ele>2147.241943</ele>
        <time>2012-04-21T08:58:38Z</time>
      </trkpt>
      <trkpt lat="42.8944" lon="0.13244">
        <ele>2139.55127</ele>
        <time>2012-04-21T08:58:43Z</time>
      </trkpt>
      <trkpt lat="42.89466" lon="0.13276">
        <ele>2130.418945</ele>
        <time>2012-04-21T08:58:51Z</time>
      </trkpt>
      <trkpt lat="42.89474" lon="0.13293">
        <ele>2122.247559</ele>
        <time>2012-04-21T08:58:58Z</time>
      </trkpt>
      <trkpt lat="42.89474" lon="0.13293">
        <ele>2122.247559</ele>
        <time>2012-04-21T08:59:19Z</time>
      </trkpt>
      <trkpt lat="42.89475" lon="0.13293">
        <ele>2122.247559</ele>
        <time>2012-04-21T08:59:50Z</time>
      </trkpt>
      <trkpt lat="42.89474" lon="0.13293">
        <ele>2121.766846</ele>
        <time>2012-04-21T09:00:21Z</time>
      </trkpt>
      <trkpt lat="42.89477" lon="0.13294">
        <ele>2119.844238</ele>
        <time>2012-04-21T09:00:42Z</time>
      </trkpt>
      <trkpt lat="42.8948" lon="0.13297">
        <ele>2118.883057</ele>
        <time>2012-04-21T09:00:44Z</time>
      </trkpt>
      <trkpt lat="42.89473" lon="0.13313">
        <ele>2116.479736</ele>
        <time>2012-04-21T09:00:49Z</time>
      </trkpt>
      <trkpt lat="42.89479" lon="0.13341">
        <ele>2111.192627</ele>
        <time>2012-04-21T09:00:54Z</time>
      </trkpt>
      <trkpt lat="42.89499" lon="0.13372">
        <ele>2098.695312</ele>
        <time>2012-04-21T09:01:02Z</time>
      </trkpt>
      <trkpt lat="42.89522" lon="0.13376">
        <ele>2092.447021</ele>
        <time>2012-04-21T09:01:07Z</time>
      </trkpt>
      <trkpt lat="42.89532" lon="0.13379">
        <ele>2091.004639</ele>
        <time>2012-04-21T09:01:09Z</time>
      </trkpt>
      <trkpt lat="42.89566" lon="0.13383">
        <ele>2083.794922</ele>
        <time>2012-04-21T09:01:17Z</time>
      </trkpt>
      <trkpt lat="42.89584" lon="0.13392">
        <ele>2077.546387</ele>
        <time>2012-04-21T09:01:21Z</time>
      </trkpt>
      <trkpt lat="42.89607" lon="0.13402">
        <ele>2070.336426</ele>
        <time>2012-04-21T09:01:26Z</time>
      </trkpt>
      <trkpt lat="42.89637" lon="0.13424">
        <ele>2060.242676</ele>
        <time>2012-04-21T09:01:35Z</time>
      </trkpt>
      <trkpt lat="42.89656" lon="0.13421">
        <ele>2058.800537</ele>
        <time>2012-04-21T09:01:41Z</time>
      </trkpt>
      <trkpt lat="42.8966" lon="0.1342">
        <ele>2056.397217</ele>
        <time>2012-04-21T09:01:56Z</time>
      </trkpt>
      <trkpt lat="42.8966" lon="0.1342">
        <ele>2057.358643</ele>
        <time>2012-04-21T09:02:23Z</time>
      </trkpt>
      <trkpt lat="42.89664" lon="0.13417">
        <ele>2056.87793</ele>
        <time>2012-04-21T09:02:49Z</time>
      </trkpt>
      <trkpt lat="42.89668" lon="0.13416">
        <ele>2056.397217</ele>
        <time>2012-04-21T09:03:06Z</time>
      </trkpt>
      <trkpt lat="42.89672" lon="0.13418">
        <ele>2055.916504</ele>
        <time>2012-04-21T09:03:23Z</time>
      </trkpt>
      <trkpt lat="42.89672" lon="0.13418">
        <ele>2055.916504</ele>
        <time>2012-04-21T09:04:14Z</time>
      </trkpt>
      <trkpt lat="42.89677" lon="0.13418">
        <ele>2054.955322</ele>
        <time>2012-04-21T09:04:17Z</time>
      </trkpt>
      <trkpt lat="42.89722" lon="0.13435">
        <ele>2043.900146</ele>
        <time>2012-04-21T09:04:26Z</time>
      </trkpt>
      <trkpt lat="42.89743" lon="0.13438">
        <ele>2040.054932</ele>
        <time>2012-04-21T09:04:30Z</time>
      </trkpt>
      <trkpt lat="42.89782" lon="0.13447">
        <ele>2029.480469</ele>
        <time>2012-04-21T09:04:39Z</time>
      </trkpt>
      <trkpt lat="42.89795" lon="0.13446">
        <ele>2023.231934</ele>
        <time>2012-04-21T09:04:51Z</time>
      </trkpt>
      <trkpt lat="42.89794" lon="0.13446">
        <ele>2023.231934</ele>
        <time>2012-04-21T09:05:15Z</time>
      </trkpt>
      <trkpt lat="42.89794" lon="0.13446">
        <ele>2023.231934</ele>
        <time>2012-04-21T09:05:32Z</time>
      </trkpt>
      <trkpt lat="42.89799" lon="0.13458">
        <ele>2022.751221</ele>
        <time>2012-04-21T09:05:36Z</time>
      </trkpt>
      <trkpt lat="42.89823" lon="0.1346">
        <ele>2015.541504</ele>
        <time>2012-04-21T09:05:45Z</time>
      </trkpt>
      <trkpt lat="42.89847" lon="0.13438">
        <ele>2005.44751</ele>
        <time>2012-04-21T09:05:52Z</time>
      </trkpt>
      <trkpt lat="42.89851" lon="0.13432">
        <ele>2000.1604</ele>
        <time>2012-04-21T09:05:59Z</time>
      </trkpt>
      <trkpt lat="42.89851" lon="0.13432">
        <ele>2000.1604</ele>
        <time>2012-04-21T09:06:12Z</time>
      </trkpt>
      <trkpt lat="42.89849" lon="0.13419">
        <ele>1997.276367</ele>
        <time>2012-04-21T09:06:17Z</time>
      </trkpt>
      <trkpt lat="42.89844" lon="0.13401">
        <ele>1995.353516</ele>
        <time>2012-04-21T09:06:20Z</time>
      </trkpt>
      <trkpt lat="42.89838" lon="0.13349">
        <ele>1988.143799</ele>
        <time>2012-04-21T09:06:34Z</time>
      </trkpt>
      <trkpt lat="42.89862" lon="0.13343">
        <ele>1977.088623</ele>
        <time>2012-04-21T09:06:42Z</time>
      </trkpt>
      <trkpt lat="42.89876" lon="0.13339">
        <ele>1967.475342</ele>
        <time>2012-04-21T09:06:49Z</time>
      </trkpt>
      <trkpt lat="42.89894" lon="0.13301">
        <ele>1958.342773</ele>
        <time>2012-04-21T09:06:56Z</time>
      </trkpt>
      <trkpt lat="42.89903" lon="0.13299">
        <ele>1954.978271</ele>
        <time>2012-04-21T09:06:58Z</time>
      </trkpt>
      <trkpt lat="42.89936" lon="0.13293">
        <ele>1944.403564</ele>
        <time>2012-04-21T09:07:07Z</time>
      </trkpt>
      <trkpt lat="42.89936" lon="0.133">
        <ele>1945.845703</ele>
        <time>2012-04-21T09:07:17Z</time>
      </trkpt>
      <trkpt lat="42.89935" lon="0.133">
        <ele>1946.806885</ele>
        <time>2012-04-21T09:07:31Z</time>
      </trkpt>
      <trkpt lat="42.89964" lon="0.13292">
        <ele>1938.155273</ele>
        <time>2012-04-21T09:07:39Z</time>
      </trkpt>
      <trkpt lat="42.89965" lon="0.13287">
        <ele>1936.713135</ele>
        <time>2012-04-21T09:07:52Z</time>
      </trkpt>
      <trkpt lat="42.89964" lon="0.13286">
        <ele>1936.232666</ele>
        <time>2012-04-21T09:08:09Z</time>
      </trkpt>
      <trkpt lat="42.89969" lon="0.1331">
        <ele>1932.387451</ele>
        <time>2012-04-21T09:08:15Z</time>
      </trkpt>
      <trkpt lat="42.89978" lon="0.13325">
        <ele>1927.100098</ele>
        <time>2012-04-21T09:08:22Z</time>
      </trkpt>
      <trkpt lat="42.89979" lon="0.13334">
        <ele>1929.983887</ele>
        <time>2012-04-21T09:08:41Z</time>
      </trkpt>
      <trkpt lat="42.8998" lon="0.13351">
        <ele>1928.541992</ele>
        <time>2012-04-21T09:08:49Z</time>
      </trkpt>
      <trkpt lat="42.89995" lon="0.13379">
        <ele>1922.77417</ele>
        <time>2012-04-21T09:08:56Z</time>
      </trkpt>
      <trkpt lat="42.90011" lon="0.13393">
        <ele>1919.409668</ele>
        <time>2012-04-21T09:09:12Z</time>
      </trkpt>
      <trkpt lat="42.9002" lon="0.13405">
        <ele>1917.967529</ele>
        <time>2012-04-21T09:09:21Z</time>
      </trkpt>
      <trkpt lat="42.90035" lon="0.13386">
        <ele>1910.276855</ele>
        <time>2012-04-21T09:09:28Z</time>
      </trkpt>
      <trkpt lat="42.90038" lon="0.13389">
        <ele>1909.315674</ele>
        <time>2012-04-21T09:09:29Z</time>
      </trkpt>
      <trkpt lat="42.9004" lon="0.13395">
        <ele>1907.873779</ele>
        <time>2012-04-21T09:09:31Z</time>
      </trkpt>
      <trkpt lat="42.90054" lon="0.13377">
        <ele>1901.144531</ele>
        <time>2012-04-21T09:09:38Z</time>
      </trkpt>
      <trkpt lat="42.9007" lon="0.13368">
        <ele>1886.244141</ele>
        <time>2012-04-21T09:09:46Z</time>
      </trkpt>
      <trkpt lat="42.90089" lon="0.13378">
        <ele>1876.630859</ele>
        <time>2012-04-21T09:09:52Z</time>
      </trkpt>
      <trkpt lat="42.9009" lon="0.13383">
        <ele>1874.708252</ele>
        <time>2012-04-21T09:10:05Z</time>
      </trkpt>
      <trkpt lat="42.9009" lon="0.13384">
        <ele>1874.708252</ele>
        <time>2012-04-21T09:10:23Z</time>
      </trkpt>
      <trkpt lat="42.90099" lon="0.13365">
        <ele>1868.459717</ele>
        <time>2012-04-21T09:10:31Z</time>
      </trkpt>
      <trkpt lat="42.90095" lon="0.13349">
        <ele>1865.575684</ele>
        <time>2012-04-21T09:10:34Z</time>
      </trkpt>
      <trkpt lat="42.90108" lon="0.13333">
        <ele>1855.962402</ele>
        <time>2012-04-21T09:10:41Z</time>
      </trkpt>
      <trkpt lat="42.90117" lon="0.13321">
        <ele>1849.233154</ele>
        <time>2012-04-21T09:10:47Z</time>
      </trkpt>
      <trkpt lat="42.90136" lon="0.13302">
        <ele>1837.216797</ele>
        <time>2012-04-21T09:10:56Z</time>
      </trkpt>
      <trkpt lat="42.90148" lon="0.13287">
        <ele>1829.526123</ele>
        <time>2012-04-21T09:11:02Z</time>
      </trkpt>
      <trkpt lat="42.90154" lon="0.13276">
        <ele>1825.200195</ele>
        <time>2012-04-21T09:11:05Z</time>
      </trkpt>
      <trkpt lat="42.90179" lon="0.13268">
        <ele>1812.222412</ele>
        <time>2012-04-21T09:11:13Z</time>
      </trkpt>
      <trkpt lat="42.90181" lon="0.13271">
        <ele>1811.741943</ele>
        <time>2012-04-21T09:11:14Z</time>
      </trkpt>
      <trkpt lat="42.90189" lon="0.1328">
        <ele>1813.183838</ele>
        <time>2012-04-21T09:11:19Z</time>
      </trkpt>
      <trkpt lat="42.90196" lon="0.13265">
        <ele>1811.741943</ele>
        <time>2012-04-21T09:11:24Z</time>
      </trkpt>
      <trkpt lat="42.90196" lon="0.13253">
        <ele>1811.26123</ele>
        <time>2012-04-21T09:11:26Z</time>
      </trkpt>
      <trkpt lat="42.90197" lon="0.13241">
        <ele>1810.780518</ele>
        <time>2012-04-21T09:11:40Z</time>
      </trkpt>
      <trkpt lat="42.90197" lon="0.1324">
        <ele>1810.780518</ele>
        <time>2012-04-21T09:12:01Z</time>
      </trkpt>
      <trkpt lat="42.90197" lon="0.13241">
        <ele>1811.26123</ele>
        <time>2012-04-21T09:12:44Z</time>
      </trkpt>
      <trkpt lat="42.90197" lon="0.13242">
        <ele>1809.819092</ele>
        <time>2012-04-21T09:13:12Z</time>
      </trkpt>
      <trkpt lat="42.90198" lon="0.13242">
        <ele>1809.338623</ele>
        <time>2012-04-21T09:13:28Z</time>
      </trkpt>
      <trkpt lat="42.90198" lon="0.13242">
        <ele>1809.338623</ele>
        <time>2012-04-21T09:14:00Z</time>
      </trkpt>
      <trkpt lat="42.90198" lon="0.13242">
        <ele>1808.85791</ele>
        <time>2012-04-21T09:14:40Z</time>
      </trkpt>
      <trkpt lat="42.90198" lon="0.13243">
        <ele>1808.85791</ele>
        <time>2012-04-21T09:15:20Z</time>
      </trkpt>
      <trkpt lat="42.90198" lon="0.13242">
        <ele>1809.338623</ele>
        <time>2012-04-21T09:15:44Z</time>
      </trkpt>
      <trkpt lat="42.90198" lon="0.13242">
        <ele>1809.819092</ele>
        <time>2012-04-21T09:15:48Z</time>
      </trkpt>
      <trkpt lat="42.90208" lon="0.13238">
        <ele>1807.896729</ele>
        <time>2012-04-21T09:16:01Z</time>
      </trkpt>
      <trkpt lat="42.90234" lon="0.13232">
        <ele>1803.570557</ele>
        <time>2012-04-21T09:16:13Z</time>
      </trkpt>
      <trkpt lat="42.90259" lon="0.13226">
        <ele>1802.128418</ele>
        <time>2012-04-21T09:16:20Z</time>
      </trkpt>
      <trkpt lat="42.90273" lon="0.1322">
        <ele>1801.167236</ele>
        <time>2012-04-21T09:16:24Z</time>
      </trkpt>
      <trkpt lat="42.90307" lon="0.13173">
        <ele>1798.283203</ele>
        <time>2012-04-21T09:16:38Z</time>
      </trkpt>
      <trkpt lat="42.9031" lon="0.13169">
        <ele>1797.802734</ele>
        <time>2012-04-21T09:16:39Z</time>
      </trkpt>
      <trkpt lat="42.90321" lon="0.13158">
        <ele>1796.36084</ele>
        <time>2012-04-21T09:16:43Z</time>
      </trkpt>
      <trkpt lat="42.90339" lon="0.13109">
        <ele>1791.554199</ele>
        <time>2012-04-21T09:16:55Z</time>
      </trkpt>
      <trkpt lat="42.90338" lon="0.13098">
        <ele>1790.112305</ele>
        <time>2012-04-21T09:16:57Z</time>
      </trkpt>
      <trkpt lat="42.90338" lon="0.13064">
        <ele>1787.228027</ele>
        <time>2012-04-21T09:17:04Z</time>
      </trkpt>
      <trkpt lat="42.90341" lon="0.1306">
        <ele>1787.228027</ele>
        <time>2012-04-21T09:17:16Z</time>
      </trkpt>
      <trkpt lat="42.9034" lon="0.1306">
        <ele>1786.747314</ele>
        <time>2012-04-21T09:17:25Z</time>
      </trkpt>
      <trkpt lat="42.90353" lon="0.13067">
        <ele>1780.979736</ele>
        <time>2012-04-21T09:17:34Z</time>
      </trkpt>
      <trkpt lat="42.9036" lon="0.13067">
        <ele>1778.095703</ele>
        <time>2012-04-21T09:17:37Z</time>
      </trkpt>
      <trkpt lat="42.90369" lon="0.13076">
        <ele>1775.21167</ele>
        <time>2012-04-21T09:17:40Z</time>
      </trkpt>
      <trkpt lat="42.90381" lon="0.1306">
        <ele>1765.598633</ele>
        <time>2012-04-21T09:17:47Z</time>
      </trkpt>
      <trkpt lat="42.904" lon="0.13045">
        <ele>1755.504639</ele>
        <time>2012-04-21T09:17:54Z</time>
      </trkpt>
      <trkpt lat="42.90453" lon="0.13032">
        <ele>1743.488281</ele>
        <time>2012-04-21T09:18:10Z</time>
      </trkpt>
      <trkpt lat="42.90457" lon="0.13031">
        <ele>1742.046387</ele>
        <time>2012-04-21T09:18:11Z</time>
      </trkpt>
      <trkpt lat="42.90478" lon="0.13021">
        <ele>1735.316895</ele>
        <time>2012-04-21T09:18:16Z</time>
      </trkpt>
      <trkpt lat="42.90487" lon="0.13018">
        <ele>1732.433105</ele>
        <time>2012-04-21T09:18:18Z</time>
      </trkpt>
      <trkpt lat="42.90504" lon="0.13013">
        <ele>1730.510498</ele>
        <time>2012-04-21T09:18:22Z</time>
      </trkpt>
      <trkpt lat="42.90511" lon="0.13013">
        <ele>1730.029785</ele>
        <time>2012-04-21T09:18:25Z</time>
      </trkpt>
      <trkpt lat="42.90523" lon="0.13006">
        <ele>1729.068359</ele>
        <time>2012-04-21T09:18:31Z</time>
      </trkpt>
      <trkpt lat="42.90539" lon="0.12999">
        <ele>1728.107178</ele>
        <time>2012-04-21T09:18:45Z</time>
      </trkpt>
      <trkpt lat="42.90543" lon="0.12998">
        <ele>1727.626465</ele>
        <time>2012-04-21T09:18:50Z</time>
      </trkpt>
      <trkpt lat="42.9055" lon="0.12998">
        <ele>1727.145996</ele>
        <time>2012-04-21T09:18:59Z</time>
      </trkpt>
      <trkpt lat="42.90551" lon="0.12997">
        <ele>1727.145996</ele>
        <time>2012-04-21T09:19:03Z</time>
      </trkpt>
      <trkpt lat="42.90551" lon="0.12997">
        <ele>1727.145996</ele>
        <time>2012-04-21T09:19:18Z</time>
      </trkpt>
      <trkpt lat="42.90551" lon="0.12997">
        <ele>1727.145996</ele>
        <time>2012-04-21T09:19:38Z</time>
      </trkpt>
      <trkpt lat="42.9055" lon="0.12996">
        <ele>1725.703857</ele>
        <time>2012-04-21T09:19:56Z</time>
      </trkpt>
      <trkpt lat="42.90553" lon="0.12998">
        <ele>1726.665283</ele>
        <time>2012-04-21T09:20:09Z</time>
      </trkpt>
      <trkpt lat="42.90555" lon="0.13">
        <ele>1726.18457</ele>
        <time>2012-04-21T09:20:24Z</time>
      </trkpt>
      <trkpt lat="42.90556" lon="0.13">
        <ele>1725.223145</ele>
        <time>2012-04-21T09:20:54Z</time>
      </trkpt>
      <trkpt lat="42.90557" lon="0.13">
        <ele>1724.261963</ele>
        <time>2012-04-21T09:21:16Z</time>
      </trkpt>
      <trkpt lat="42.90557" lon="0.13">
        <ele>1723.300537</ele>
        <time>2012-04-21T09:21:38Z</time>
      </trkpt>
      <trkpt lat="42.90557" lon="0.13001">
        <ele>1722.339111</ele>
        <time>2012-04-21T09:25:18Z</time>
      </trkpt>
      <trkpt lat="42.90557" lon="0.13001">
        <ele>1722.339111</ele>
        <time>2012-04-21T09:26:00Z</time>
      </trkpt>
      <trkpt lat="42.90557" lon="0.13002">
        <ele>1722.819824</ele>
        <time>2012-04-21T09:28:11Z</time>
      </trkpt>
      <trkpt lat="42.90557" lon="0.13003">
        <ele>1726.665283</ele>
        <time>2012-04-21T09:53:00Z</time>
      </trkpt>
      <trkpt lat="42.90556" lon="0.13001">
        <ele>1728.587891</ele>
        <time>2012-04-21T09:53:19Z</time>
      </trkpt>
      <trkpt lat="42.90554" lon="0.13001">
        <ele>1728.587891</ele>
        <time>2012-04-21T09:53:33Z</time>
      </trkpt>
      <trkpt lat="42.90554" lon="0.13001">
        <ele>1727.626465</ele>
        <time>2012-04-21T09:53:54Z</time>
      </trkpt>
      <trkpt lat="42.90553" lon="0.12997">
        <ele>1729.068359</ele>
        <time>2012-04-21T09:54:01Z</time>
      </trkpt>
      <trkpt lat="42.9055" lon="0.12996">
        <ele>1729.068359</ele>
        <time>2012-04-21T09:54:04Z</time>
      </trkpt>
      <trkpt lat="42.90545" lon="0.13001">
        <ele>1729.068359</ele>
        <time>2012-04-21T09:54:10Z</time>
      </trkpt>
      <trkpt lat="42.90544" lon="0.13004">
        <ele>1729.549072</ele>
        <time>2012-04-21T09:54:31Z</time>
      </trkpt>
      <trkpt lat="42.90545" lon="0.13004">
        <ele>1730.029785</ele>
        <time>2012-04-21T09:54:55Z</time>
      </trkpt>
      <trkpt lat="42.90545" lon="0.13003">
        <ele>1730.510498</ele>
        <time>2012-04-21T09:55:08Z</time>
      </trkpt>
      <trkpt lat="42.90542" lon="0.13006">
        <ele>1730.991211</ele>
        <time>2012-04-21T09:55:12Z</time>
      </trkpt>
      <trkpt lat="42.90537" lon="0.13011">
        <ele>1730.991211</ele>
        <time>2012-04-21T09:55:17Z</time>
      </trkpt>
      <trkpt lat="42.90535" lon="0.13016">
        <ele>1730.991211</ele>
        <time>2012-04-21T09:55:20Z</time>
      </trkpt>
      <trkpt lat="42.9054" lon="0.13043">
        <ele>1731.47168</ele>
        <time>2012-04-21T09:55:34Z</time>
      </trkpt>
      <trkpt lat="42.90541" lon="0.13053">
        <ele>1730.991211</ele>
        <time>2012-04-21T09:55:39Z</time>
      </trkpt>
      <trkpt lat="42.90546" lon="0.13082">
        <ele>1729.549072</ele>
        <time>2012-04-21T09:55:52Z</time>
      </trkpt>
      <trkpt lat="42.90554" lon="0.13117">
        <ele>1726.665283</ele>
        <time>2012-04-21T09:56:08Z</time>
      </trkpt>
      <trkpt lat="42.90557" lon="0.13138">
        <ele>1726.18457</ele>
        <time>2012-04-21T09:56:18Z</time>
      </trkpt>
      <trkpt lat="42.90563" lon="0.13151">
        <ele>1725.703857</ele>
        <time>2012-04-21T09:56:26Z</time>
      </trkpt>
      <trkpt lat="42.90568" lon="0.13161">
        <ele>1726.18457</ele>
        <time>2012-04-21T09:56:33Z</time>
      </trkpt>
      <trkpt lat="42.90572" lon="0.13173">
        <ele>1728.107178</ele>
        <time>2012-04-21T09:56:42Z</time>
      </trkpt>
      <trkpt lat="42.90575" lon="0.13191">
        <ele>1725.703857</ele>
        <time>2012-04-21T09:56:53Z</time>
      </trkpt>
      <trkpt lat="42.90575" lon="0.13195">
        <ele>1727.145996</ele>
        <time>2012-04-21T09:56:55Z</time>
      </trkpt>
      <trkpt lat="42.90575" lon="0.13201">
        <ele>1727.626465</ele>
        <time>2012-04-21T09:56:58Z</time>
      </trkpt>
      <trkpt lat="42.90575" lon="0.13212">
        <ele>1728.107178</ele>
        <time>2012-04-21T09:57:16Z</time>
      </trkpt>
      <trkpt lat="42.90579" lon="0.1323">
        <ele>1730.991211</ele>
        <time>2012-04-21T09:57:29Z</time>
      </trkpt>
      <trkpt lat="42.9058" lon="0.13233">
        <ele>1731.47168</ele>
        <time>2012-04-21T09:57:31Z</time>
      </trkpt>
      <trkpt lat="42.90582" lon="0.13246">
        <ele>1732.433105</ele>
        <time>2012-04-21T09:57:41Z</time>
      </trkpt>
      <trkpt lat="42.90582" lon="0.13249">
        <ele>1732.433105</ele>
        <time>2012-04-21T09:57:43Z</time>
      </trkpt>
      <trkpt lat="42.90588" lon="0.13268">
        <ele>1733.394287</ele>
        <time>2012-04-21T09:57:58Z</time>
      </trkpt>
      <trkpt lat="42.90588" lon="0.13275">
        <ele>1734.355713</ele>
        <time>2012-04-21T09:58:02Z</time>
      </trkpt>
      <trkpt lat="42.90589" lon="0.1328">
        <ele>1736.27832</ele>
        <time>2012-04-21T09:58:06Z</time>
      </trkpt>
      <trkpt lat="42.9059" lon="0.13284">
        <ele>1737.239502</ele>
        <time>2012-04-21T09:58:09Z</time>
      </trkpt>
      <trkpt lat="42.90592" lon="0.1329">
        <ele>1740.123779</ele>
        <time>2012-04-21T09:58:16Z</time>
      </trkpt>
      <trkpt lat="42.90593" lon="0.13295">
        <ele>1740.604248</ele>
        <time>2012-04-21T09:58:20Z</time>
      </trkpt>
      <trkpt lat="42.90595" lon="0.13297">
        <ele>1741.565674</ele>
        <time>2012-04-21T09:58:22Z</time>
      </trkpt>
      <trkpt lat="42.90599" lon="0.13306">
        <ele>1744.449463</ele>
        <time>2012-04-21T09:58:30Z</time>
      </trkpt>
      <trkpt lat="42.90602" lon="0.13324">
        <ele>1745.410889</ele>
        <time>2012-04-21T09:58:41Z</time>
      </trkpt>
      <trkpt lat="42.90603" lon="0.13329">
        <ele>1745.891602</ele>
        <time>2012-04-21T09:58:45Z</time>
      </trkpt>
      <trkpt lat="42.90603" lon="0.13331">
        <ele>1746.372314</ele>
        <time>2012-04-21T09:58:47Z</time>
      </trkpt>
      <trkpt lat="42.90605" lon="0.13339">
        <ele>1746.852783</ele>
        <time>2012-04-21T09:58:53Z</time>
      </trkpt>
      <trkpt lat="42.90606" lon="0.13344">
        <ele>1746.372314</ele>
        <time>2012-04-21T09:59:05Z</time>
      </trkpt>
      <trkpt lat="42.90606" lon="0.13349">
        <ele>1746.372314</ele>
        <time>2012-04-21T09:59:09Z</time>
      </trkpt>
      <trkpt lat="42.90607" lon="0.13363">
        <ele>1746.372314</ele>
        <time>2012-04-21T09:59:19Z</time>
      </trkpt>
      <trkpt lat="42.90609" lon="0.13377">
        <ele>1751.659424</ele>
        <time>2012-04-21T09:59:35Z</time>
      </trkpt>
      <trkpt lat="42.90609" lon="0.13383">
        <ele>1755.504639</ele>
        <time>2012-04-21T09:59:42Z</time>
      </trkpt>
      <trkpt lat="42.90605" lon="0.13389">
        <ele>1755.985107</ele>
        <time>2012-04-21T09:59:51Z</time>
      </trkpt>
      <trkpt lat="42.90595" lon="0.13399">
        <ele>1757.908203</ele>
        <time>2012-04-21T10:00:11Z</time>
      </trkpt>
      <trkpt lat="42.90591" lon="0.13402">
        <ele>1759.830566</ele>
        <time>2012-04-21T10:00:24Z</time>
      </trkpt>
      <trkpt lat="42.90601" lon="0.13415">
        <ele>1765.598633</ele>
        <time>2012-04-21T10:00:38Z</time>
      </trkpt>
      <trkpt lat="42.90602" lon="0.13419">
        <ele>1767.040527</ele>
        <time>2012-04-21T10:00:42Z</time>
      </trkpt>
      <trkpt lat="42.90607" lon="0.13427">
        <ele>1772.327881</ele>
        <time>2012-04-21T10:00:58Z</time>
      </trkpt>
      <trkpt lat="42.90611" lon="0.13439">
        <ele>1777.61499</ele>
        <time>2012-04-21T10:01:18Z</time>
      </trkpt>
      <trkpt lat="42.90611" lon="0.13444">
        <ele>1779.056885</ele>
        <time>2012-04-21T10:01:23Z</time>
      </trkpt>
      <trkpt lat="42.90603" lon="0.13449">
        <ele>1783.382812</ele>
        <time>2012-04-21T10:01:37Z</time>
      </trkpt>
      <trkpt lat="42.906" lon="0.13449">
        <ele>1783.382812</ele>
        <time>2012-04-21T10:01:40Z</time>
      </trkpt>
      <trkpt lat="42.9059" lon="0.13452">
        <ele>1787.228027</ele>
        <time>2012-04-21T10:01:54Z</time>
      </trkpt>
      <trkpt lat="42.90577" lon="0.13455">
        <ele>1787.228027</ele>
        <time>2012-04-21T10:02:13Z</time>
      </trkpt>
      <trkpt lat="42.9057" lon="0.13458">
        <ele>1792.515625</ele>
        <time>2012-04-21T10:02:30Z</time>
      </trkpt>
      <trkpt lat="42.90572" lon="0.13466">
        <ele>1792.515625</ele>
        <time>2012-04-21T10:02:43Z</time>
      </trkpt>
      <trkpt lat="42.90573" lon="0.13473">
        <ele>1793.95752</ele>
        <time>2012-04-21T10:02:50Z</time>
      </trkpt>
      <trkpt lat="42.90576" lon="0.13485">
        <ele>1796.36084</ele>
        <time>2012-04-21T10:03:02Z</time>
      </trkpt>
      <trkpt lat="42.90579" lon="0.13496">
        <ele>1798.763916</ele>
        <time>2012-04-21T10:03:17Z</time>
      </trkpt>
      <trkpt lat="42.90579" lon="0.1351">
        <ele>1800.686523</ele>
        <time>2012-04-21T10:03:37Z</time>
      </trkpt>
      <trkpt lat="42.9057" lon="0.13511">
        <ele>1804.051514</ele>
        <time>2012-04-21T10:03:56Z</time>
      </trkpt>
      <trkpt lat="42.90568" lon="0.13511">
        <ele>1804.051514</ele>
        <time>2012-04-21T10:03:58Z</time>
      </trkpt>
      <trkpt lat="42.9056" lon="0.13513">
        <ele>1805.012695</ele>
        <time>2012-04-21T10:04:06Z</time>
      </trkpt>
      <trkpt lat="42.90548" lon="0.13516">
        <ele>1806.935303</ele>
        <time>2012-04-21T10:04:23Z</time>
      </trkpt>
      <trkpt lat="42.90537" lon="0.13515">
        <ele>1808.85791</ele>
        <time>2012-04-21T10:04:38Z</time>
      </trkpt>
      <trkpt lat="42.90535" lon="0.13519">
        <ele>1810.780518</ele>
        <time>2012-04-21T10:04:45Z</time>
      </trkpt>
      <trkpt lat="42.90538" lon="0.13527">
        <ele>1810.780518</ele>
        <time>2012-04-21T10:04:52Z</time>
      </trkpt>
      <trkpt lat="42.90542" lon="0.13538">
        <ele>1813.664307</ele>
        <time>2012-04-21T10:05:10Z</time>
      </trkpt>
      <trkpt lat="42.90543" lon="0.13541">
        <ele>1813.664307</ele>
        <time>2012-04-21T10:05:12Z</time>
      </trkpt>
      <trkpt lat="42.90544" lon="0.13548">
        <ele>1816.067627</ele>
        <time>2012-04-21T10:05:22Z</time>
      </trkpt>
      <trkpt lat="42.90545" lon="0.13568">
        <ele>1817.029053</ele>
        <time>2012-04-21T10:05:38Z</time>
      </trkpt>
      <trkpt lat="42.90547" lon="0.13581">
        <ele>1822.316406</ele>
        <time>2012-04-21T10:05:54Z</time>
      </trkpt>
      <trkpt lat="42.90544" lon="0.13587">
        <ele>1822.797119</ele>
        <time>2012-04-21T10:06:10Z</time>
      </trkpt>
      <trkpt lat="42.90533" lon="0.13589">
        <ele>1826.161621</ele>
        <time>2012-04-21T10:06:22Z</time>
      </trkpt>
      <trkpt lat="42.90522" lon="0.13592">
        <ele>1829.526123</ele>
        <time>2012-04-21T10:06:34Z</time>
      </trkpt>
      <trkpt lat="42.90519" lon="0.13593">
        <ele>1830.968262</ele>
        <time>2012-04-21T10:06:38Z</time>
      </trkpt>
      <trkpt lat="42.9051" lon="0.13595">
        <ele>1835.774658</ele>
        <time>2012-04-21T10:06:49Z</time>
      </trkpt>
      <trkpt lat="42.90507" lon="0.13596">
        <ele>1836.255615</ele>
        <time>2012-04-21T10:06:53Z</time>
      </trkpt>
      <trkpt lat="42.90504" lon="0.13597">
        <ele>1835.774658</ele>
        <time>2012-04-21T10:06:57Z</time>
      </trkpt>
      <trkpt lat="42.90493" lon="0.13604">
        <ele>1835.774658</ele>
        <time>2012-04-21T10:07:14Z</time>
      </trkpt>
      <trkpt lat="42.90486" lon="0.13614">
        <ele>1836.736084</ele>
        <time>2012-04-21T10:07:29Z</time>
      </trkpt>
      <trkpt lat="42.90485" lon="0.13615">
        <ele>1837.216797</ele>
        <time>2012-04-21T10:07:31Z</time>
      </trkpt>
      <trkpt lat="42.90482" lon="0.1362">
        <ele>1838.178223</ele>
        <time>2012-04-21T10:07:36Z</time>
      </trkpt>
      <trkpt lat="42.90482" lon="0.13631">
        <ele>1839.139404</ele>
        <time>2012-04-21T10:07:44Z</time>
      </trkpt>
      <trkpt lat="42.90488" lon="0.13643">
        <ele>1842.023438</ele>
        <time>2012-04-21T10:07:58Z</time>
      </trkpt>
      <trkpt lat="42.90494" lon="0.1365">
        <ele>1843.465332</ele>
        <time>2012-04-21T10:08:07Z</time>
      </trkpt>
      <trkpt lat="42.90497" lon="0.13653">
        <ele>1843.465332</ele>
        <time>2012-04-21T10:08:11Z</time>
      </trkpt>
      <trkpt lat="42.90501" lon="0.13659">
        <ele>1844.426514</ele>
        <time>2012-04-21T10:08:19Z</time>
      </trkpt>
      <trkpt lat="42.90509" lon="0.13666">
        <ele>1846.829834</ele>
        <time>2012-04-21T10:08:35Z</time>
      </trkpt>
      <trkpt lat="42.90515" lon="0.13676">
        <ele>1849.233154</ele>
        <time>2012-04-21T10:08:48Z</time>
      </trkpt>
      <trkpt lat="42.9052" lon="0.13679">
        <ele>1849.713867</ele>
        <time>2012-04-21T10:08:54Z</time>
      </trkpt>
      <trkpt lat="42.90525" lon="0.13693">
        <ele>1852.117188</ele>
        <time>2012-04-21T10:09:08Z</time>
      </trkpt>
      <trkpt lat="42.90529" lon="0.13709">
        <ele>1855.481934</ele>
        <time>2012-04-21T10:09:24Z</time>
      </trkpt>
      <trkpt lat="42.9053" lon="0.13714">
        <ele>1856.923828</ele>
        <time>2012-04-21T10:09:30Z</time>
      </trkpt>
      <trkpt lat="42.90534" lon="0.13732">
        <ele>1859.807617</ele>
        <time>2012-04-21T10:09:47Z</time>
      </trkpt>
      <trkpt lat="42.9054" lon="0.13744">
        <ele>1861.730469</ele>
        <time>2012-04-21T10:10:04Z</time>
      </trkpt>
      <trkpt lat="42.90543" lon="0.1376">
        <ele>1864.133545</ele>
        <time>2012-04-21T10:10:20Z</time>
      </trkpt>
      <trkpt lat="42.90546" lon="0.13775">
        <ele>1866.536865</ele>
        <time>2012-04-21T10:10:37Z</time>
      </trkpt>
      <trkpt lat="42.9055" lon="0.13786">
        <ele>1866.536865</ele>
        <time>2012-04-21T10:10:49Z</time>
      </trkpt>
      <trkpt lat="42.90554" lon="0.13794">
        <ele>1866.536865</ele>
        <time>2012-04-21T10:10:58Z</time>
      </trkpt>
      <trkpt lat="42.90557" lon="0.13803">
        <ele>1869.421143</ele>
        <time>2012-04-21T10:11:11Z</time>
      </trkpt>
      <trkpt lat="42.90559" lon="0.13807">
        <ele>1869.901611</ele>
        <time>2012-04-21T10:11:15Z</time>
      </trkpt>
      <trkpt lat="42.90562" lon="0.13812">
        <ele>1870.863037</ele>
        <time>2012-04-21T10:11:28Z</time>
      </trkpt>
      <trkpt lat="42.90566" lon="0.13822">
        <ele>1870.863037</ele>
        <time>2012-04-21T10:11:36Z</time>
      </trkpt>
      <trkpt lat="42.90571" lon="0.13825">
        <ele>1871.824219</ele>
        <time>2012-04-21T10:11:41Z</time>
      </trkpt>
      <trkpt lat="42.90574" lon="0.13826">
        <ele>1872.304932</ele>
        <time>2012-04-21T10:11:44Z</time>
      </trkpt>
      <trkpt lat="42.90591" lon="0.13837">
        <ele>1873.266357</ele>
        <time>2012-04-21T10:12:01Z</time>
      </trkpt>
      <trkpt lat="42.90601" lon="0.13841">
        <ele>1875.669434</ele>
        <time>2012-04-21T10:12:10Z</time>
      </trkpt>
      <trkpt lat="42.90603" lon="0.13842">
        <ele>1875.669434</ele>
        <time>2012-04-21T10:12:12Z</time>
      </trkpt>
      <trkpt lat="42.90606" lon="0.13843">
        <ele>1876.150146</ele>
        <time>2012-04-21T10:12:16Z</time>
      </trkpt>
      <trkpt lat="42.90613" lon="0.1385">
        <ele>1876.150146</ele>
        <time>2012-04-21T10:12:24Z</time>
      </trkpt>
      <trkpt lat="42.90615" lon="0.13852">
        <ele>1876.630859</ele>
        <time>2012-04-21T10:12:26Z</time>
      </trkpt>
      <trkpt lat="42.90621" lon="0.13858">
        <ele>1877.592041</ele>
        <time>2012-04-21T10:12:32Z</time>
      </trkpt>
      <trkpt lat="42.90635" lon="0.13868">
        <ele>1878.553467</ele>
        <time>2012-04-21T10:12:47Z</time>
      </trkpt>
      <trkpt lat="42.90639" lon="0.13869">
        <ele>1878.072754</ele>
        <time>2012-04-21T10:12:50Z</time>
      </trkpt>
      <trkpt lat="42.90646" lon="0.13871">
        <ele>1880.476074</ele>
        <time>2012-04-21T10:12:57Z</time>
      </trkpt>
      <trkpt lat="42.9065" lon="0.13872">
        <ele>1881.917969</ele>
        <time>2012-04-21T10:13:02Z</time>
      </trkpt>
      <trkpt lat="42.90652" lon="0.13871">
        <ele>1881.917969</ele>
        <time>2012-04-21T10:13:04Z</time>
      </trkpt>
      <trkpt lat="42.90656" lon="0.13871">
        <ele>1882.398682</ele>
        <time>2012-04-21T10:13:21Z</time>
      </trkpt>
      <trkpt lat="42.90655" lon="0.13872">
        <ele>1883.359863</ele>
        <time>2012-04-21T10:13:44Z</time>
      </trkpt>
      <trkpt lat="42.90651" lon="0.13877">
        <ele>1886.244141</ele>
        <time>2012-04-21T10:13:53Z</time>
      </trkpt>
      <trkpt lat="42.90644" lon="0.13884">
        <ele>1888.647461</ele>
        <time>2012-04-21T10:14:03Z</time>
      </trkpt>
      <trkpt lat="42.90633" lon="0.13897">
        <ele>1887.205322</ele>
        <time>2012-04-21T10:14:17Z</time>
      </trkpt>
      <trkpt lat="42.90628" lon="0.13901">
        <ele>1888.166748</ele>
        <time>2012-04-21T10:14:24Z</time>
      </trkpt>
      <trkpt lat="42.90617" lon="0.1391">
        <ele>1892.011963</ele>
        <time>2012-04-21T10:14:40Z</time>
      </trkpt>
      <trkpt lat="42.90616" lon="0.13911">
        <ele>1892.492676</ele>
        <time>2012-04-21T10:14:41Z</time>
      </trkpt>
      <trkpt lat="42.90612" lon="0.13915">
        <ele>1894.895752</ele>
        <time>2012-04-21T10:14:47Z</time>
      </trkpt>
      <trkpt lat="42.90608" lon="0.13926">
        <ele>1898.260254</ele>
        <time>2012-04-21T10:15:02Z</time>
      </trkpt>
      <trkpt lat="42.90604" lon="0.13942">
        <ele>1902.105713</ele>
        <time>2012-04-21T10:15:18Z</time>
      </trkpt>
      <trkpt lat="42.90602" lon="0.13956">
        <ele>1904.989746</ele>
        <time>2012-04-21T10:15:31Z</time>
      </trkpt>
      <trkpt lat="42.90599" lon="0.13971">
        <ele>1905.950928</ele>
        <time>2012-04-21T10:15:43Z</time>
      </trkpt>
      <trkpt lat="42.90597" lon="0.13975">
        <ele>1906.912354</ele>
        <time>2012-04-21T10:15:48Z</time>
      </trkpt>
      <trkpt lat="42.90595" lon="0.13983">
        <ele>1911.238281</ele>
        <time>2012-04-21T10:16:04Z</time>
      </trkpt>
      <trkpt lat="42.90594" lon="0.13984">
        <ele>1911.718994</ele>
        <time>2012-04-21T10:16:06Z</time>
      </trkpt>
      <trkpt lat="42.90588" lon="0.13995">
        <ele>1914.602783</ele>
        <time>2012-04-21T10:16:21Z</time>
      </trkpt>
      <trkpt lat="42.90582" lon="0.14005">
        <ele>1915.083496</ele>
        <time>2012-04-21T10:16:31Z</time>
      </trkpt>
      <trkpt lat="42.90583" lon="0.14009">
        <ele>1916.044922</ele>
        <time>2012-04-21T10:16:34Z</time>
      </trkpt>
      <trkpt lat="42.90583" lon="0.14018">
        <ele>1917.006348</ele>
        <time>2012-04-21T10:16:40Z</time>
      </trkpt>
      <trkpt lat="42.90583" lon="0.14024">
        <ele>1917.967529</ele>
        <time>2012-04-21T10:16:46Z</time>
      </trkpt>
      <trkpt lat="42.9058" lon="0.1404">
        <ele>1921.332031</ele>
        <time>2012-04-21T10:17:00Z</time>
      </trkpt>
      <trkpt lat="42.90577" lon="0.14061">
        <ele>1923.735352</ele>
        <time>2012-04-21T10:17:14Z</time>
      </trkpt>
      <trkpt lat="42.90575" lon="0.14075">
        <ele>1924.696777</ele>
        <time>2012-04-21T10:17:25Z</time>
      </trkpt>
      <trkpt lat="42.90575" lon="0.14084">
        <ele>1925.657959</ele>
        <time>2012-04-21T10:17:34Z</time>
      </trkpt>
      <trkpt lat="42.90574" lon="0.14103">
        <ele>1929.983887</ele>
        <time>2012-04-21T10:17:51Z</time>
      </trkpt>
      <trkpt lat="42.90575" lon="0.14112">
        <ele>1930.4646</ele>
        <time>2012-04-21T10:17:58Z</time>
      </trkpt>
      <trkpt lat="42.90575" lon="0.1413">
        <ele>1931.906494</ele>
        <time>2012-04-21T10:18:14Z</time>
      </trkpt>
      <trkpt lat="42.90574" lon="0.14138">
        <ele>1933.348633</ele>
        <time>2012-04-21T10:18:22Z</time>
      </trkpt>
      <trkpt lat="42.90574" lon="0.14155">
        <ele>1937.193848</ele>
        <time>2012-04-21T10:18:41Z</time>
      </trkpt>
      <trkpt lat="42.90575" lon="0.14159">
        <ele>1938.635986</ele>
        <time>2012-04-21T10:18:46Z</time>
      </trkpt>
      <trkpt lat="42.90576" lon="0.14167">
        <ele>1939.597168</ele>
        <time>2012-04-21T10:19:01Z</time>
      </trkpt>
      <trkpt lat="42.90574" lon="0.14172">
        <ele>1939.597168</ele>
        <time>2012-04-21T10:19:11Z</time>
      </trkpt>
      <trkpt lat="42.90573" lon="0.14181">
        <ele>1939.116455</ele>
        <time>2012-04-21T10:19:18Z</time>
      </trkpt>
      <trkpt lat="42.90576" lon="0.14192">
        <ele>1941.039062</ele>
        <time>2012-04-21T10:19:34Z</time>
      </trkpt>
      <trkpt lat="42.90578" lon="0.142">
        <ele>1942.000488</ele>
        <time>2012-04-21T10:19:46Z</time>
      </trkpt>
      <trkpt lat="42.90582" lon="0.14212">
        <ele>1942.000488</ele>
        <time>2012-04-21T10:19:58Z</time>
      </trkpt>
      <trkpt lat="42.90585" lon="0.14218">
        <ele>1942.481201</ele>
        <time>2012-04-21T10:20:03Z</time>
      </trkpt>
      <trkpt lat="42.90588" lon="0.14231">
        <ele>1945.845703</ele>
        <time>2012-04-21T10:20:19Z</time>
      </trkpt>
      <trkpt lat="42.90588" lon="0.14241">
        <ele>1946.806885</ele>
        <time>2012-04-21T10:20:29Z</time>
      </trkpt>
      <trkpt lat="42.90588" lon="0.1425">
        <ele>1947.768311</ele>
        <time>2012-04-21T10:20:37Z</time>
      </trkpt>
      <trkpt lat="42.90581" lon="0.14247">
        <ele>1949.210449</ele>
        <time>2012-04-21T10:20:44Z</time>
      </trkpt>
      <trkpt lat="42.90573" lon="0.14243">
        <ele>1949.691162</ele>
        <time>2012-04-21T10:20:56Z</time>
      </trkpt>
      <trkpt lat="42.90564" lon="0.14244">
        <ele>1950.171875</ele>
        <time>2012-04-21T10:21:06Z</time>
      </trkpt>
      <trkpt lat="42.90558" lon="0.14255">
        <ele>1954.01709</ele>
        <time>2012-04-21T10:21:20Z</time>
      </trkpt>
      <trkpt lat="42.90557" lon="0.14259">
        <ele>1955.939453</ele>
        <time>2012-04-21T10:21:27Z</time>
      </trkpt>
      <trkpt lat="42.90555" lon="0.14269">
        <ele>1958.342773</ele>
        <time>2012-04-21T10:21:39Z</time>
      </trkpt>
      <trkpt lat="42.9055" lon="0.14283">
        <ele>1962.187988</ele>
        <time>2012-04-21T10:21:56Z</time>
      </trkpt>
      <trkpt lat="42.90548" lon="0.14285">
        <ele>1963.149414</ele>
        <time>2012-04-21T10:22:00Z</time>
      </trkpt>
      <trkpt lat="42.90544" lon="0.14293">
        <ele>1964.11084</ele>
        <time>2012-04-21T10:22:09Z</time>
      </trkpt>
      <trkpt lat="42.90542" lon="0.14296">
        <ele>1964.591553</ele>
        <time>2012-04-21T10:22:12Z</time>
      </trkpt>
      <trkpt lat="42.9054" lon="0.14299">
        <ele>1966.51416</ele>
        <time>2012-04-21T10:22:16Z</time>
      </trkpt>
      <trkpt lat="42.90539" lon="0.14302">
        <ele>1967.475342</ele>
        <time>2012-04-21T10:22:19Z</time>
      </trkpt>
      <trkpt lat="42.90535" lon="0.14313">
        <ele>1970.840088</ele>
        <time>2012-04-21T10:22:34Z</time>
      </trkpt>
      <trkpt lat="42.90529" lon="0.14329">
        <ele>1970.840088</ele>
        <time>2012-04-21T10:22:54Z</time>
      </trkpt>
      <trkpt lat="42.90529" lon="0.14332">
        <ele>1971.320557</ele>
        <time>2012-04-21T10:22:56Z</time>
      </trkpt>
      <trkpt lat="42.90528" lon="0.14337">
        <ele>1971.80127</ele>
        <time>2012-04-21T10:23:19Z</time>
      </trkpt>
      <trkpt lat="42.90528" lon="0.14337">
        <ele>1971.80127</ele>
        <time>2012-04-21T10:23:22Z</time>
      </trkpt>
      <trkpt lat="42.90529" lon="0.14336">
        <ele>1972.281982</ele>
        <time>2012-04-21T10:23:34Z</time>
      </trkpt>
      <trkpt lat="42.90533" lon="0.14334">
        <ele>1973.723877</ele>
        <time>2012-04-21T10:23:39Z</time>
      </trkpt>
      <trkpt lat="42.9054" lon="0.14329">
        <ele>1979.491699</ele>
        <time>2012-04-21T10:23:56Z</time>
      </trkpt>
      <trkpt lat="42.90552" lon="0.14326">
        <ele>1979.491699</ele>
        <time>2012-04-21T10:24:13Z</time>
      </trkpt>
      <trkpt lat="42.90565" lon="0.14326">
        <ele>1985.740479</ele>
        <time>2012-04-21T10:24:29Z</time>
      </trkpt>
      <trkpt lat="42.9057" lon="0.14326">
        <ele>1987.663086</ele>
        <time>2012-04-21T10:24:34Z</time>
      </trkpt>
      <trkpt lat="42.90578" lon="0.14327">
        <ele>1987.182373</ele>
        <time>2012-04-21T10:24:53Z</time>
      </trkpt>
      <trkpt lat="42.90578" lon="0.14327">
        <ele>1987.182373</ele>
        <time>2012-04-21T10:25:13Z</time>
      </trkpt>
      <trkpt lat="42.90573" lon="0.14331">
        <ele>1988.143799</ele>
        <time>2012-04-21T10:25:29Z</time>
      </trkpt>
      <trkpt lat="42.90563" lon="0.14342">
        <ele>1990.066406</ele>
        <time>2012-04-21T10:25:45Z</time>
      </trkpt>
      <trkpt lat="42.90554" lon="0.14358">
        <ele>1992.950195</ele>
        <time>2012-04-21T10:26:04Z</time>
      </trkpt>
      <trkpt lat="42.90554" lon="0.14359">
        <ele>1992.950195</ele>
        <time>2012-04-21T10:26:05Z</time>
      </trkpt>
      <trkpt lat="42.90549" lon="0.14372">
        <ele>1993.430908</ele>
        <time>2012-04-21T10:26:24Z</time>
      </trkpt>
      <trkpt lat="42.9055" lon="0.14371">
        <ele>1993.911621</ele>
        <time>2012-04-21T10:26:43Z</time>
      </trkpt>
      <trkpt lat="42.90557" lon="0.14367">
        <ele>1996.315186</ele>
        <time>2012-04-21T10:26:59Z</time>
      </trkpt>
      <trkpt lat="42.90566" lon="0.14364">
        <ele>1997.75708</ele>
        <time>2012-04-21T10:27:15Z</time>
      </trkpt>
      <trkpt lat="42.90576" lon="0.14362">
        <ele>2002.563477</ele>
        <time>2012-04-21T10:27:34Z</time>
      </trkpt>
      <trkpt lat="42.90576" lon="0.14363">
        <ele>2002.563477</ele>
        <time>2012-04-21T10:27:51Z</time>
      </trkpt>
      <trkpt lat="42.90574" lon="0.14372">
        <ele>2007.370117</ele>
        <time>2012-04-21T10:28:08Z</time>
      </trkpt>
      <trkpt lat="42.9057" lon="0.14385">
        <ele>2010.253906</ele>
        <time>2012-04-21T10:28:29Z</time>
      </trkpt>
      <trkpt lat="42.90571" lon="0.14385">
        <ele>2010.253906</ele>
        <time>2012-04-21T10:28:37Z</time>
      </trkpt>
      <trkpt lat="42.90582" lon="0.14381">
        <ele>2012.657471</ele>
        <time>2012-04-21T10:28:51Z</time>
      </trkpt>
      <trkpt lat="42.90591" lon="0.14382">
        <ele>2014.099365</ele>
        <time>2012-04-21T10:29:10Z</time>
      </trkpt>
      <trkpt lat="42.90595" lon="0.14384">
        <ele>2015.060791</ele>
        <time>2012-04-21T10:29:31Z</time>
      </trkpt>
      <trkpt lat="42.9059" lon="0.14393">
        <ele>2017.94458</ele>
        <time>2012-04-21T10:29:47Z</time>
      </trkpt>
      <trkpt lat="42.90586" lon="0.14402">
        <ele>2023.231934</ele>
        <time>2012-04-21T10:29:57Z</time>
      </trkpt>
      <trkpt lat="42.90582" lon="0.14415">
        <ele>2027.077148</ele>
        <time>2012-04-21T10:30:11Z</time>
      </trkpt>
      <trkpt lat="42.90582" lon="0.14426">
        <ele>2029.480469</ele>
        <time>2012-04-21T10:30:27Z</time>
      </trkpt>
      <trkpt lat="42.90582" lon="0.14429">
        <ele>2029.961182</ele>
        <time>2012-04-21T10:30:34Z</time>
      </trkpt>
      <trkpt lat="42.90585" lon="0.14425">
        <ele>2030.441895</ele>
        <time>2012-04-21T10:30:57Z</time>
      </trkpt>
      <trkpt lat="42.90586" lon="0.14424">
        <ele>2030.441895</ele>
        <time>2012-04-21T10:30:58Z</time>
      </trkpt>
      <trkpt lat="42.90597" lon="0.14421">
        <ele>2030.441895</ele>
        <time>2012-04-21T10:31:16Z</time>
      </trkpt>
      <trkpt lat="42.906" lon="0.1442">
        <ele>2030.441895</ele>
        <time>2012-04-21T10:31:19Z</time>
      </trkpt>
      <trkpt lat="42.90612" lon="0.14419">
        <ele>2035.729004</ele>
        <time>2012-04-21T10:31:38Z</time>
      </trkpt>
      <trkpt lat="42.90622" lon="0.14418">
        <ele>2038.132324</ele>
        <time>2012-04-21T10:31:54Z</time>
      </trkpt>
      <trkpt lat="42.90622" lon="0.14417">
        <ele>2038.613037</ele>
        <time>2012-04-21T10:32:29Z</time>
      </trkpt>
      <trkpt lat="42.90621" lon="0.14424">
        <ele>2041.016113</ele>
        <time>2012-04-21T10:32:43Z</time>
      </trkpt>
      <trkpt lat="42.90616" lon="0.1444">
        <ele>2042.938721</ele>
        <time>2012-04-21T10:33:01Z</time>
      </trkpt>
      <trkpt lat="42.90611" lon="0.14454">
        <ele>2046.303711</ele>
        <time>2012-04-21T10:33:20Z</time>
      </trkpt>
      <trkpt lat="42.90609" lon="0.14467">
        <ele>2052.071289</ele>
        <time>2012-04-21T10:33:36Z</time>
      </trkpt>
      <trkpt lat="42.90608" lon="0.14474">
        <ele>2053.032715</ele>
        <time>2012-04-21T10:33:54Z</time>
      </trkpt>
      <trkpt lat="42.90608" lon="0.14473">
        <ele>2053.513428</ele>
        <time>2012-04-21T10:34:10Z</time>
      </trkpt>
      <trkpt lat="42.9061" lon="0.1447">
        <ele>2053.994141</ele>
        <time>2012-04-21T10:34:43Z</time>
      </trkpt>
      <trkpt lat="42.9061" lon="0.14476">
        <ele>2054.474609</ele>
        <time>2012-04-21T10:34:57Z</time>
      </trkpt>
      <trkpt lat="42.90614" lon="0.14489">
        <ele>2059.761719</ele>
        <time>2012-04-21T10:35:15Z</time>
      </trkpt>
      <trkpt lat="42.90616" lon="0.14491">
        <ele>2060.723389</ele>
        <time>2012-04-21T10:35:19Z</time>
      </trkpt>
      <trkpt lat="42.9062" lon="0.14493">
        <ele>2062.645996</ele>
        <time>2012-04-21T10:35:24Z</time>
      </trkpt>
      <trkpt lat="42.9062" lon="0.14498">
        <ele>2063.607178</ele>
        <time>2012-04-21T10:35:28Z</time>
      </trkpt>
      <trkpt lat="42.90618" lon="0.14509">
        <ele>2067.452393</ele>
        <time>2012-04-21T10:35:44Z</time>
      </trkpt>
      <trkpt lat="42.90619" lon="0.14507">
        <ele>2066.971924</ele>
        <time>2012-04-21T10:36:02Z</time>
      </trkpt>
      <trkpt lat="42.90622" lon="0.14505">
        <ele>2067.933105</ele>
        <time>2012-04-21T10:36:06Z</time>
      </trkpt>
      <trkpt lat="42.90627" lon="0.14503">
        <ele>2070.817139</ele>
        <time>2012-04-21T10:36:20Z</time>
      </trkpt>
      <trkpt lat="42.90627" lon="0.14504">
        <ele>2070.817139</ele>
        <time>2012-04-21T10:36:34Z</time>
      </trkpt>
      <trkpt lat="42.90625" lon="0.14512">
        <ele>2072.739746</ele>
        <time>2012-04-21T10:36:43Z</time>
      </trkpt>
      <trkpt lat="42.90625" lon="0.14526">
        <ele>2075.623535</ele>
        <time>2012-04-21T10:37:00Z</time>
      </trkpt>
      <trkpt lat="42.90628" lon="0.14531">
        <ele>2076.585205</ele>
        <time>2012-04-21T10:37:10Z</time>
      </trkpt>
      <trkpt lat="42.90636" lon="0.14528">
        <ele>2079.949707</ele>
        <time>2012-04-21T10:37:24Z</time>
      </trkpt>
      <trkpt lat="42.90645" lon="0.14527">
        <ele>2082.833496</ele>
        <time>2012-04-21T10:37:41Z</time>
      </trkpt>
      <trkpt lat="42.90644" lon="0.14541">
        <ele>2084.756348</ele>
        <time>2012-04-21T10:38:00Z</time>
      </trkpt>
      <trkpt lat="42.90649" lon="0.14541">
        <ele>2084.756348</ele>
        <time>2012-04-21T10:38:22Z</time>
      </trkpt>
      <trkpt lat="42.90653" lon="0.14539">
        <ele>2089.082031</ele>
        <time>2012-04-21T10:38:38Z</time>
      </trkpt>
      <trkpt lat="42.90653" lon="0.14545">
        <ele>2090.043457</ele>
        <time>2012-04-21T10:38:49Z</time>
      </trkpt>
      <trkpt lat="42.9065" lon="0.14556">
        <ele>2094.369385</ele>
        <time>2012-04-21T10:39:02Z</time>
      </trkpt>
      <trkpt lat="42.90645" lon="0.14569">
        <ele>2095.330811</ele>
        <time>2012-04-21T10:39:22Z</time>
      </trkpt>
      <trkpt lat="42.90645" lon="0.1457">
        <ele>2095.330811</ele>
        <time>2012-04-21T10:39:25Z</time>
      </trkpt>
      <trkpt lat="42.90652" lon="0.14569">
        <ele>2096.292236</ele>
        <time>2012-04-21T10:39:38Z</time>
      </trkpt>
      <trkpt lat="42.90651" lon="0.14566">
        <ele>2096.292236</ele>
        <time>2012-04-21T10:39:54Z</time>
      </trkpt>
      <trkpt lat="42.90651" lon="0.14565">
        <ele>2096.772705</ele>
        <time>2012-04-21T10:41:52Z</time>
      </trkpt>
      <trkpt lat="42.90651" lon="0.14566">
        <ele>2097.734131</ele>
        <time>2012-04-21T10:44:49Z</time>
      </trkpt>
      <trkpt lat="42.90652" lon="0.14568">
        <ele>2099.656738</ele>
        <time>2012-04-21T10:48:24Z</time>
      </trkpt>
      <trkpt lat="42.90652" lon="0.14568">
        <ele>2099.176025</ele>
        <time>2012-04-21T10:49:08Z</time>
      </trkpt>
      <trkpt lat="42.90652" lon="0.14568">
        <ele>2099.176025</ele>
        <time>2012-04-21T10:49:31Z</time>
      </trkpt>
      <trkpt lat="42.90652" lon="0.14569">
        <ele>2098.695312</ele>
        <time>2012-04-21T10:49:53Z</time>
      </trkpt>
      <trkpt lat="42.90652" lon="0.14569">
        <ele>2098.2146</ele>
        <time>2012-04-21T10:50:15Z</time>
      </trkpt>
      <trkpt lat="42.90651" lon="0.14569">
        <ele>2098.2146</ele>
        <time>2012-04-21T10:53:11Z</time>
      </trkpt>
      <trkpt lat="42.90649" lon="0.14568">
        <ele>2099.656738</ele>
        <time>2012-04-21T10:53:17Z</time>
      </trkpt>
      <trkpt lat="42.90646" lon="0.14564">
        <ele>2096.292236</ele>
        <time>2012-04-21T10:53:33Z</time>
      </trkpt>
      <trkpt lat="42.90646" lon="0.14563">
        <ele>2094.369385</ele>
        <time>2012-04-21T10:53:50Z</time>
      </trkpt>
      <trkpt lat="42.90647" lon="0.14564">
        <ele>2094.369385</ele>
        <time>2012-04-21T10:54:34Z</time>
      </trkpt>
      <trkpt lat="42.90647" lon="0.14564">
        <ele>2094.369385</ele>
        <time>2012-04-21T10:55:13Z</time>
      </trkpt>
      <trkpt lat="42.90651" lon="0.14548">
        <ele>2091.485352</ele>
        <time>2012-04-21T10:55:18Z</time>
      </trkpt>
      <trkpt lat="42.90632" lon="0.14521">
        <ele>2081.391602</ele>
        <time>2012-04-21T10:55:27Z</time>
      </trkpt>
      <trkpt lat="42.90629" lon="0.14503">
        <ele>2073.700928</ele>
        <time>2012-04-21T10:55:35Z</time>
      </trkpt>
      <trkpt lat="42.9062" lon="0.14506">
        <ele>2066.010498</ele>
        <time>2012-04-21T10:55:42Z</time>
      </trkpt>
      <trkpt lat="42.90619" lon="0.14505">
        <ele>2064.568604</ele>
        <time>2012-04-21T10:55:45Z</time>
      </trkpt>
      <trkpt lat="42.90619" lon="0.14479">
        <ele>2062.645996</ele>
        <time>2012-04-21T10:55:56Z</time>
      </trkpt>
      <trkpt lat="42.9061" lon="0.14471">
        <ele>2058.800537</ele>
        <time>2012-04-21T10:56:04Z</time>
      </trkpt>
      <trkpt lat="42.90608" lon="0.14464">
        <ele>2055.436035</ele>
        <time>2012-04-21T10:56:09Z</time>
      </trkpt>
      <trkpt lat="42.90615" lon="0.14445">
        <ele>2051.110107</ele>
        <time>2012-04-21T10:56:14Z</time>
      </trkpt>
      <trkpt lat="42.90608" lon="0.14416">
        <ele>2040.054932</ele>
        <time>2012-04-21T10:56:21Z</time>
      </trkpt>
      <trkpt lat="42.90592" lon="0.14399">
        <ele>2028.999756</ele>
        <time>2012-04-21T10:56:27Z</time>
      </trkpt>
      <trkpt lat="42.90579" lon="0.14371">
        <ele>2013.138184</ele>
        <time>2012-04-21T10:56:35Z</time>
      </trkpt>
      <trkpt lat="42.90572" lon="0.14361">
        <ele>2004.005615</ele>
        <time>2012-04-21T10:56:41Z</time>
      </trkpt>
      <trkpt lat="42.90563" lon="0.14363">
        <ele>2001.121582</ele>
        <time>2012-04-21T10:56:44Z</time>
      </trkpt>
      <trkpt lat="42.90559" lon="0.14355">
        <ele>1994.39209</ele>
        <time>2012-04-21T10:56:52Z</time>
      </trkpt>
      <trkpt lat="42.90559" lon="0.14355">
        <ele>1994.39209</ele>
        <time>2012-04-21T10:56:57Z</time>
      </trkpt>
      <trkpt lat="42.90554" lon="0.14342">
        <ele>1986.221191</ele>
        <time>2012-04-21T10:57:06Z</time>
      </trkpt>
      <trkpt lat="42.90554" lon="0.14341">
        <ele>1985.740479</ele>
        <time>2012-04-21T10:57:24Z</time>
      </trkpt>
      <trkpt lat="42.90554" lon="0.14341">
        <ele>1985.740479</ele>
        <time>2012-04-21T10:57:58Z</time>
      </trkpt>
      <trkpt lat="42.90553" lon="0.1434">
        <ele>1986.70166</ele>
        <time>2012-04-21T10:58:18Z</time>
      </trkpt>
      <trkpt lat="42.90543" lon="0.1433">
        <ele>1982.856445</ele>
        <time>2012-04-21T10:58:23Z</time>
      </trkpt>
      <trkpt lat="42.9053" lon="0.143">
        <ele>1964.591553</ele>
        <time>2012-04-21T10:58:32Z</time>
      </trkpt>
      <trkpt lat="42.90515" lon="0.14282">
        <ele>1951.133057</ele>
        <time>2012-04-21T10:58:40Z</time>
      </trkpt>
      <trkpt lat="42.90514" lon="0.14281">
        <ele>1948.249023</ele>
        <time>2012-04-21T10:59:01Z</time>
      </trkpt>
      <trkpt lat="42.90511" lon="0.14278">
        <ele>1945.845703</ele>
        <time>2012-04-21T10:59:11Z</time>
      </trkpt>
      <trkpt lat="42.90511" lon="0.14278">
        <ele>1946.326416</ele>
        <time>2012-04-21T10:59:19Z</time>
      </trkpt>
      <trkpt lat="42.90506" lon="0.14277">
        <ele>1945.36499</ele>
        <time>2012-04-21T10:59:22Z</time>
      </trkpt>
      <trkpt lat="42.90494" lon="0.1424">
        <ele>1934.310059</ele>
        <time>2012-04-21T10:59:31Z</time>
      </trkpt>
      <trkpt lat="42.90477" lon="0.14232">
        <ele>1929.983887</ele>
        <time>2012-04-21T10:59:37Z</time>
      </trkpt>
      <trkpt lat="42.90476" lon="0.14233">
        <ele>1931.425781</ele>
        <time>2012-04-21T10:59:46Z</time>
      </trkpt>
      <trkpt lat="42.9046" lon="0.14224">
        <ele>1928.061279</ele>
        <time>2012-04-21T10:59:58Z</time>
      </trkpt>
      <trkpt lat="42.90452" lon="0.14215">
        <ele>1927.580566</ele>
        <time>2012-04-21T11:00:04Z</time>
      </trkpt>
      <trkpt lat="42.90427" lon="0.1416">
        <ele>1920.37085</ele>
        <time>2012-04-21T11:00:18Z</time>
      </trkpt>
      <trkpt lat="42.90415" lon="0.14066">
        <ele>1913.160889</ele>
        <time>2012-04-21T11:00:35Z</time>
      </trkpt>
      <trkpt lat="42.90408" lon="0.13954">
        <ele>1901.625244</ele>
        <time>2012-04-21T11:00:54Z</time>
      </trkpt>
      <trkpt lat="42.90412" lon="0.13888">
        <ele>1893.453857</ele>
        <time>2012-04-21T11:01:09Z</time>
      </trkpt>
      <trkpt lat="42.90418" lon="0.13849">
        <ele>1890.569824</ele>
        <time>2012-04-21T11:01:18Z</time>
      </trkpt>
      <trkpt lat="42.90417" lon="0.13787">
        <ele>1886.244141</ele>
        <time>2012-04-21T11:01:31Z</time>
      </trkpt>
      <trkpt lat="42.90421" lon="0.13737">
        <ele>1878.553467</ele>
        <time>2012-04-21T11:01:47Z</time>
      </trkpt>
      <trkpt lat="42.90423" lon="0.13732">
        <ele>1877.592041</ele>
        <time>2012-04-21T11:02:02Z</time>
      </trkpt>
      <trkpt lat="42.90401" lon="0.1371">
        <ele>1869.901611</ele>
        <time>2012-04-21T11:02:14Z</time>
      </trkpt>
      <trkpt lat="42.90401" lon="0.13709">
        <ele>1869.901611</ele>
        <time>2012-04-21T11:02:15Z</time>
      </trkpt>
      <trkpt lat="42.9043" lon="0.13673">
        <ele>1860.28833</ele>
        <time>2012-04-21T11:02:27Z</time>
      </trkpt>
      <trkpt lat="42.90446" lon="0.13661">
        <ele>1855.001221</ele>
        <time>2012-04-21T11:02:30Z</time>
      </trkpt>
      <trkpt lat="42.9047" lon="0.13633">
        <ele>1846.349365</ele>
        <time>2012-04-21T11:02:38Z</time>
      </trkpt>
      <trkpt lat="42.90475" lon="0.13628">
        <ele>1846.349365</ele>
        <time>2012-04-21T11:02:41Z</time>
      </trkpt>
      <trkpt lat="42.90479" lon="0.13623">
        <ele>1845.868652</ele>
        <time>2012-04-21T11:02:44Z</time>
      </trkpt>
      <trkpt lat="42.9048" lon="0.1362">
        <ele>1845.387939</ele>
        <time>2012-04-21T11:02:47Z</time>
      </trkpt>
      <trkpt lat="42.90501" lon="0.13606">
        <ele>1842.023438</ele>
        <time>2012-04-21T11:02:56Z</time>
      </trkpt>
      <trkpt lat="42.90507" lon="0.13597">
        <ele>1839.620117</ele>
        <time>2012-04-21T11:02:59Z</time>
      </trkpt>
      <trkpt lat="42.90526" lon="0.13587">
        <ele>1833.852051</ele>
        <time>2012-04-21T11:03:05Z</time>
      </trkpt>
      <trkpt lat="42.90531" lon="0.13572">
        <ele>1830.006836</ele>
        <time>2012-04-21T11:03:08Z</time>
      </trkpt>
      <trkpt lat="42.90531" lon="0.13534">
        <ele>1820.874512</ele>
        <time>2012-04-21T11:03:16Z</time>
      </trkpt>
      <trkpt lat="42.9053" lon="0.13532">
        <ele>1820.393799</ele>
        <time>2012-04-21T11:03:30Z</time>
      </trkpt>
      <trkpt lat="42.9053" lon="0.13532">
        <ele>1820.393799</ele>
        <time>2012-04-21T11:03:33Z</time>
      </trkpt>
      <trkpt lat="42.90549" lon="0.13513">
        <ele>1813.664307</ele>
        <time>2012-04-21T11:03:43Z</time>
      </trkpt>
      <trkpt lat="42.90561" lon="0.13488">
        <ele>1802.609131</ele>
        <time>2012-04-21T11:03:51Z</time>
      </trkpt>
      <trkpt lat="42.90571" lon="0.13469">
        <ele>1795.399414</ele>
        <time>2012-04-21T11:03:57Z</time>
      </trkpt>
      <trkpt lat="42.90575" lon="0.13451">
        <ele>1790.112305</ele>
        <time>2012-04-21T11:04:01Z</time>
      </trkpt>
      <trkpt lat="42.90587" lon="0.13429">
        <ele>1781.460205</ele>
        <time>2012-04-21T11:04:08Z</time>
      </trkpt>
      <trkpt lat="42.90596" lon="0.13404">
        <ele>1770.885742</ele>
        <time>2012-04-21T11:04:14Z</time>
      </trkpt>
      <trkpt lat="42.90594" lon="0.13342">
        <ele>1755.023926</ele>
        <time>2012-04-21T11:04:23Z</time>
      </trkpt>
      <trkpt lat="42.90584" lon="0.13294">
        <ele>1747.814209</ele>
        <time>2012-04-21T11:04:35Z</time>
      </trkpt>
      <trkpt lat="42.90564" lon="0.13228">
        <ele>1741.084961</ele>
        <time>2012-04-21T11:04:51Z</time>
      </trkpt>
      <trkpt lat="42.90555" lon="0.13207">
        <ele>1737.720215</ele>
        <time>2012-04-21T11:04:57Z</time>
      </trkpt>
      <trkpt lat="42.90547" lon="0.13183">
        <ele>1737.720215</ele>
        <time>2012-04-21T11:05:05Z</time>
      </trkpt>
      <trkpt lat="42.90544" lon="0.13168">
        <ele>1740.604248</ele>
        <time>2012-04-21T11:05:12Z</time>
      </trkpt>
      <trkpt lat="42.90545" lon="0.13164">
        <ele>1740.123779</ele>
        <time>2012-04-21T11:05:15Z</time>
      </trkpt>
      <trkpt lat="42.90546" lon="0.13162">
        <ele>1739.642822</ele>
        <time>2012-04-21T11:05:17Z</time>
      </trkpt>
      <trkpt lat="42.90546" lon="0.1316">
        <ele>1738.681641</ele>
        <time>2012-04-21T11:05:19Z</time>
      </trkpt>
      <trkpt lat="42.90547" lon="0.13158">
        <ele>1738.200928</ele>
        <time>2012-04-21T11:05:21Z</time>
      </trkpt>
      <trkpt lat="42.90548" lon="0.13153">
        <ele>1738.200928</ele>
        <time>2012-04-21T11:05:26Z</time>
      </trkpt>
      <trkpt lat="42.90553" lon="0.13147">
        <ele>1741.084961</ele>
        <time>2012-04-21T11:05:36Z</time>
      </trkpt>
      <trkpt lat="42.90554" lon="0.13147">
        <ele>1741.084961</ele>
        <time>2012-04-21T11:05:39Z</time>
      </trkpt>
      <trkpt lat="42.90556" lon="0.13147">
        <ele>1741.565674</ele>
        <time>2012-04-21T11:05:46Z</time>
      </trkpt>
      <trkpt lat="42.9056" lon="0.13148">
        <ele>1741.084961</ele>
        <time>2012-04-21T11:05:52Z</time>
      </trkpt>
      <trkpt lat="42.90568" lon="0.13146">
        <ele>1744.930176</ele>
        <time>2012-04-21T11:06:05Z</time>
      </trkpt>
      <trkpt lat="42.90569" lon="0.13146">
        <ele>1746.372314</ele>
        <time>2012-04-21T11:06:26Z</time>
      </trkpt>
      <trkpt lat="42.90568" lon="0.13145">
        <ele>1746.852783</ele>
        <time>2012-04-21T11:06:42Z</time>
      </trkpt>
      <trkpt lat="42.90568" lon="0.13147">
        <ele>1746.852783</ele>
        <time>2012-04-21T11:06:44Z</time>
      </trkpt>
      <trkpt lat="42.90562" lon="0.13164">
        <ele>1744.449463</ele>
        <time>2012-04-21T11:06:57Z</time>
      </trkpt>
      <trkpt lat="42.90562" lon="0.13167">
        <ele>1743.968994</ele>
        <time>2012-04-21T11:06:59Z</time>
      </trkpt>
      <trkpt lat="42.90561" lon="0.1317">
        <ele>1743.007568</ele>
        <time>2012-04-21T11:07:01Z</time>
      </trkpt>
      <trkpt lat="42.90559" lon="0.13175">
        <ele>1742.5271</ele>
        <time>2012-04-21T11:07:16Z</time>
      </trkpt>
      <trkpt lat="42.90559" lon="0.13175">
        <ele>1742.5271</ele>
        <time>2012-04-21T11:08:17Z</time>
      </trkpt>
      <trkpt lat="42.9056" lon="0.13171">
        <ele>1741.565674</ele>
        <time>2012-04-21T11:08:20Z</time>
      </trkpt>
      <trkpt lat="42.90567" lon="0.13153">
        <ele>1739.162109</ele>
        <time>2012-04-21T11:08:36Z</time>
      </trkpt>
      <trkpt lat="42.90566" lon="0.13148">
        <ele>1737.239502</ele>
        <time>2012-04-21T11:08:50Z</time>
      </trkpt>
      <trkpt lat="42.90567" lon="0.13148">
        <ele>1738.200928</ele>
        <time>2012-04-21T11:09:18Z</time>
      </trkpt>
      <trkpt lat="42.90567" lon="0.13148">
        <ele>1738.681641</ele>
        <time>2012-04-21T11:09:51Z</time>
      </trkpt>
      <trkpt lat="42.90567" lon="0.13148">
        <ele>1738.200928</ele>
        <time>2012-04-21T11:10:09Z</time>
      </trkpt>
      <trkpt lat="42.90567" lon="0.13147">
        <ele>1738.200928</ele>
        <time>2012-04-21T11:10:33Z</time>
      </trkpt>
      <trkpt lat="42.90567" lon="0.13149">
        <ele>1738.200928</ele>
        <time>2012-04-21T11:10:50Z</time>
      </trkpt>
      <trkpt lat="42.90568" lon="0.13143">
        <ele>1738.681641</ele>
        <time>2012-04-21T11:10:56Z</time>
      </trkpt>
      <trkpt lat="42.90562" lon="0.13126">
        <ele>1739.162109</ele>
        <time>2012-04-21T11:11:09Z</time>
      </trkpt>
      <trkpt lat="42.90562" lon="0.13109">
        <ele>1740.604248</ele>
        <time>2012-04-21T11:11:26Z</time>
      </trkpt>
      <trkpt lat="42.90561" lon="0.13108">
        <ele>1739.642822</ele>
        <time>2012-04-21T11:11:28Z</time>
      </trkpt>
      <trkpt lat="42.90564" lon="0.13085">
        <ele>1743.968994</ele>
        <time>2012-04-21T11:11:47Z</time>
      </trkpt>
      <trkpt lat="42.90564" lon="0.13084">
        <ele>1743.968994</ele>
        <time>2012-04-21T11:11:56Z</time>
      </trkpt>
      <trkpt lat="42.90567" lon="0.13066">
        <ele>1747.333496</ele>
        <time>2012-04-21T11:12:14Z</time>
      </trkpt>
      <trkpt lat="42.90579" lon="0.13043">
        <ele>1751.659424</ele>
        <time>2012-04-21T11:12:33Z</time>
      </trkpt>
      <trkpt lat="42.90583" lon="0.13026">
        <ele>1750.217529</ele>
        <time>2012-04-21T11:12:49Z</time>
      </trkpt>
      <trkpt lat="42.90584" lon="0.13024">
        <ele>1750.217529</ele>
        <time>2012-04-21T11:12:54Z</time>
      </trkpt>
      <trkpt lat="42.90585" lon="0.13006">
        <ele>1749.736816</ele>
        <time>2012-04-21T11:13:08Z</time>
      </trkpt>
      <trkpt lat="42.90581" lon="0.13002">
        <ele>1750.217529</ele>
        <time>2012-04-21T11:13:28Z</time>
      </trkpt>
      <trkpt lat="42.90572" lon="0.12997">
        <ele>1750.217529</ele>
        <time>2012-04-21T11:13:38Z</time>
      </trkpt>
      <trkpt lat="42.90567" lon="0.12995">
        <ele>1750.217529</ele>
        <time>2012-04-21T11:13:42Z</time>
      </trkpt>
      <trkpt lat="42.90564" lon="0.12995">
        <ele>1749.736816</ele>
        <time>2012-04-21T11:13:45Z</time>
      </trkpt>
      <trkpt lat="42.90562" lon="0.12993">
        <ele>1750.217529</ele>
        <time>2012-04-21T11:13:47Z</time>
      </trkpt>
      <trkpt lat="42.90559" lon="0.12993">
        <ele>1750.697998</ele>
        <time>2012-04-21T11:13:50Z</time>
      </trkpt>
      <trkpt lat="42.90555" lon="0.12995">
        <ele>1749.736816</ele>
        <time>2012-04-21T11:14:10Z</time>
      </trkpt>
      <trkpt lat="42.90555" lon="0.12994">
        <ele>1749.256104</ele>
        <time>2012-04-21T11:14:25Z</time>
      </trkpt>
      <trkpt lat="42.90554" lon="0.12995">
        <ele>1750.697998</ele>
        <time>2012-04-21T11:15:08Z</time>
      </trkpt>
      <trkpt lat="42.90554" lon="0.12995">
        <ele>1751.659424</ele>
        <time>2012-04-21T11:16:48Z</time>
      </trkpt>
      <trkpt lat="42.90554" lon="0.12995">
        <ele>1751.659424</ele>
        <time>2012-04-21T11:17:24Z</time>
      </trkpt>
      <trkpt lat="42.90555" lon="0.12996">
        <ele>1752.620605</ele>
        <time>2012-04-21T11:17:51Z</time>
      </trkpt>
      <trkpt lat="42.90555" lon="0.12996">
        <ele>1752.620605</ele>
        <time>2012-04-21T11:18:11Z</time>
      </trkpt>
    </trkseg>
  </trk>
</gpx>